Time,TemperatureF,DewpointF,PressureIn,WindDirection,WindDirectionDegrees,WindSpeedMPH,WindSpeedGustMPH,Humidity,HourlyPrecipIn,Conditions,Clouds,dailyrainin,SoftwareType,DateUTC
2013-06-22 00:00:00,75.7,63.6,29.85,SW,225,2.7,2.7,66,0.00,,---,0.00,VWS V14.00,2013-06-22 05:00:00,
2013-06-22 00:01:00,75.7,63.6,29.85,SW,225,2.7,2.7,66,0.00,,---,0.00,VWS V14.00,2013-06-22 05:01:00,
2013-06-22 00:02:00,75.7,63.6,29.85,SW,225,2.7,2.7,66,0.00,,---,0.00,VWS V14.00,2013-06-22 05:02:00,
2013-06-22 00:03:00,75.7,63.6,29.85,South,180,2.7,2.7,66,0.00,,---,0.00,VWS V14.00,2013-06-22 05:03:00,
2013-06-22 00:04:00,75.7,63.6,29.85,South,180,3.8,3.8,66,0.00,,---,0.00,VWS V14.00,2013-06-22 05:04:00,
2013-06-22 00:05:00,75.6,63.4,29.85,SSW,202,2.7,2.7,66,0.00,,---,0.00,VWS V14.00,2013-06-22 05:05:00,
2013-06-22 00:06:00,75.6,63.4,29.85,SW,225,2.4,2.4,66,0.00,,---,0.00,VWS V14.00,2013-06-22 05:06:00,
2013-06-22 00:07:00,75.6,63.4,29.85,SW,225,1.0,1.6,66,0.00,,---,0.00,VWS V14.00,2013-06-22 05:07:00,
2013-06-22 00:08:00,75.6,63.8,29.85,SW,225,1.0,1.0,67,0.00,,---,0.00,VWS V14.00,2013-06-22 05:08:00,
2013-06-22 00:10:00,75.6,63.8,29.85,SW,225,1.0,1.6,67,0.00,,---,0.00,VWS V14.00,2013-06-22 05:10:00,
2013-06-22 00:11:00,75.6,63.8,29.85,SE,135,4.1,4.1,67,0.00,,---,0.00,VWS V14.00,2013-06-22 05:11:00,
2013-06-22 00:12:00,75.6,63.8,29.85,SE,135,3.0,3.0,67,0.00,,---,0.00,VWS V14.00,2013-06-22 05:12:00,
2013-06-22 00:13:00,75.4,63.7,29.85,South,180,4.1,4.1,67,0.00,,---,0.00,VWS V14.00,2013-06-22 05:13:00,
2013-06-22 00:14:00,75.4,63.7,29.85,South,180,4.1,4.1,67,0.00,,---,0.00,VWS V14.00,2013-06-22 05:14:00,
2013-06-22 00:15:00,75.4,63.7,29.85,SSE,158,4.1,4.1,67,0.00,,---,0.00,VWS V14.00,2013-06-22 05:15:00,
2013-06-22 00:16:00,75.4,63.7,29.85,SSW,202,2.7,2.7,67,0.00,,---,0.00,VWS V14.00,2013-06-22 05:16:00,
2013-06-22 00:17:00,75.4,63.7,29.85,SE,135,3.0,3.0,67,0.00,,---,0.00,VWS V14.00,2013-06-22 05:17:00,
2013-06-22 00:18:00,75.4,63.7,29.85,South,180,3.0,3.0,67,0.00,,---,0.00,VWS V14.00,2013-06-22 05:18:00,
2013-06-22 00:20:00,75.2,63.5,29.85,SSW,202,2.1,2.1,67,0.00,,---,0.00,VWS V14.00,2013-06-22 05:20:00,
2013-06-22 00:21:00,75.2,63.5,29.85,South,180,3.8,3.8,67,0.00,,---,0.00,VWS V14.00,2013-06-22 05:21:00,
2013-06-22 00:23:00,75.2,63.9,29.85,South,180,2.4,2.4,68,0.00,,---,0.00,VWS V14.00,2013-06-22 05:23:00,
2013-06-22 00:24:00,75.2,63.9,29.85,South,180,3.5,3.5,68,0.00,,---,0.00,VWS V14.00,2013-06-22 05:24:00,
2013-06-22 00:25:00,75.2,63.9,29.85,South,180,3.0,3.0,68,0.00,,---,0.00,VWS V14.00,2013-06-22 05:25:00,
2013-06-22 00:26:00,75.2,63.9,29.85,South,180,2.7,2.7,68,0.00,,---,0.00,VWS V14.00,2013-06-22 05:26:00,
2013-06-22 00:27:00,75.2,63.9,29.85,South,180,1.0,1.6,68,0.00,,---,0.00,VWS V14.00,2013-06-22 05:27:00,
2013-06-22 00:28:00,75.2,63.9,29.85,SSW,202,2.7,2.7,68,0.00,,---,0.00,VWS V14.00,2013-06-22 05:28:00,
2013-06-22 00:29:00,75.2,63.9,29.85,SW,225,3.8,3.8,68,0.00,,---,0.00,VWS V14.00,2013-06-22 05:29:00,
2013-06-22 00:30:00,75.2,63.9,29.85,SW,225,3.8,3.8,68,0.00,,---,0.00,VWS V14.00,2013-06-22 05:30:00,
2013-06-22 00:31:00,75.2,63.9,29.85,SW,225,2.4,2.5,68,0.00,,---,0.00,VWS V14.00,2013-06-22 05:31:00,
2013-06-22 00:32:00,75.2,63.9,29.85,SSW,202,2.1,2.1,68,0.00,,---,0.00,VWS V14.00,2013-06-22 05:32:00,
2013-06-22 00:33:00,75.0,63.8,29.85,SSW,202,2.4,2.4,68,0.00,,---,0.00,VWS V14.00,2013-06-22 05:33:00,
2013-06-22 00:34:00,75.0,63.8,29.85,WSW,248,2.1,2.1,68,0.00,,---,0.00,VWS V14.00,2013-06-22 05:34:00,
2013-06-22 00:35:00,75.0,63.8,29.85,SSW,202,3.5,3.5,68,0.00,,---,0.00,VWS V14.00,2013-06-22 05:35:00,
2013-06-22 00:36:00,75.0,64.2,29.85,SW,225,3.0,3.0,69,0.00,,---,0.00,VWS V14.00,2013-06-22 05:36:00,
2013-06-22 00:37:00,75.0,64.2,29.85,SW,225,2.7,2.7,69,0.00,,---,0.00,VWS V14.00,2013-06-22 05:37:00,
2013-06-22 00:38:00,75.0,64.2,29.85,SW,225,2.7,2.7,69,0.00,,---,0.00,VWS V14.00,2013-06-22 05:38:00,
2013-06-22 00:39:00,75.0,64.2,29.85,SSW,202,4.6,4.6,69,0.00,,---,0.00,VWS V14.00,2013-06-22 05:39:00,
2013-06-22 00:40:00,75.0,64.2,29.85,SW,225,2.1,2.9,69,0.00,,---,0.00,VWS V14.00,2013-06-22 05:40:00,
2013-06-22 00:41:00,75.0,64.2,29.85,SW,225,4.9,4.9,69,0.00,,---,0.00,VWS V14.00,2013-06-22 05:41:00,
2013-06-22 00:42:00,75.0,64.2,29.85,SW,225,4.9,4.9,69,0.00,,---,0.00,VWS V14.00,2013-06-22 05:42:00,
2013-06-22 00:43:00,75.0,64.2,29.85,SW,225,3.0,3.1,69,0.00,,---,0.00,VWS V14.00,2013-06-22 05:43:00,
2013-06-22 00:44:00,75.0,64.2,29.85,SW,225,4.1,4.1,69,0.00,,---,0.00,VWS V14.00,2013-06-22 05:44:00,
2013-06-22 00:45:00,75.0,64.2,29.85,SW,225,5.5,5.5,69,0.00,,---,0.00,VWS V14.00,2013-06-22 05:45:00,
2013-06-22 00:46:00,75.0,64.2,29.85,SW,225,5.5,5.5,69,0.00,,---,0.00,VWS V14.00,2013-06-22 05:46:00,
2013-06-22 00:47:00,75.0,64.2,29.85,SW,225,2.4,3.6,69,0.00,,---,0.00,VWS V14.00,2013-06-22 05:47:00,
2013-06-22 00:48:00,75.0,64.2,29.85,SSW,202,2.7,2.7,69,0.00,,---,0.00,VWS V14.00,2013-06-22 05:48:00,
2013-06-22 00:49:00,74.8,64.0,29.85,SW,225,4.6,4.6,69,0.00,,---,0.00,VWS V14.00,2013-06-22 05:49:00,
2013-06-22 00:50:00,75.0,64.2,29.85,SW,225,2.4,2.9,69,0.00,,---,0.00,VWS V14.00,2013-06-22 05:50:00,
2013-06-22 00:51:00,74.8,64.0,29.85,SW,225,3.0,3.0,69,0.00,,---,0.00,VWS V14.00,2013-06-22 05:51:00,
2013-06-22 00:52:00,74.8,64.0,29.85,SSW,202,3.0,3.0,69,0.00,,---,0.00,VWS V14.00,2013-06-22 05:52:00,
2013-06-22 00:53:00,74.8,64.0,29.85,SSE,158,5.2,5.2,69,0.00,,---,0.00,VWS V14.00,2013-06-22 05:53:00,
2013-06-22 00:54:00,74.8,64.0,29.85,SSE,158,4.9,4.9,69,0.00,,---,0.00,VWS V14.00,2013-06-22 05:54:00,
2013-06-22 00:55:00,74.8,64.0,29.85,SSW,202,3.5,3.5,69,0.00,,---,0.00,VWS V14.00,2013-06-22 05:55:00,
2013-06-22 00:56:00,74.8,64.4,29.85,South,180,5.2,5.2,70,0.00,,---,0.00,VWS V14.00,2013-06-22 05:56:00,
2013-06-22 00:57:00,74.8,64.4,29.85,ESE,112,5.2,5.2,70,0.00,,---,0.00,VWS V14.00,2013-06-22 05:57:00,
2013-06-22 00:58:00,74.8,64.4,29.85,SSW,202,3.5,3.5,70,0.00,,---,0.00,VWS V14.00,2013-06-22 05:58:00,
2013-06-22 00:59:00,74.8,64.4,29.85,SW,225,4.4,4.4,70,0.00,,---,0.00,VWS V14.00,2013-06-22 05:59:00,
2013-06-22 01:00:00,74.8,64.4,29.85,SW,225,2.7,2.7,70,0.00,,---,0.00,VWS V14.00,2013-06-22 06:00:00,
2013-06-22 01:01:00,74.8,64.4,29.85,SSW,202,4.4,4.4,70,0.00,,---,0.00,VWS V14.00,2013-06-22 06:01:00,
2013-06-22 01:02:00,74.8,64.4,29.85,SSW,202,4.1,4.1,70,0.00,,---,0.00,VWS V14.00,2013-06-22 06:02:00,
2013-06-22 01:03:00,74.8,64.4,29.85,SSW,202,4.1,4.1,70,0.00,,---,0.00,VWS V14.00,2013-06-22 06:03:00,
2013-06-22 01:04:00,74.8,64.4,29.85,SW,225,2.4,2.5,70,0.00,,---,0.00,VWS V14.00,2013-06-22 06:04:00,
2013-06-22 01:05:00,74.8,64.4,29.85,South,180,5.2,5.2,70,0.00,,---,0.00,VWS V14.00,2013-06-22 06:05:00,
2013-06-22 01:06:00,74.8,64.4,29.85,SSE,158,3.0,3.8,70,0.00,,---,0.00,VWS V14.00,2013-06-22 06:06:00,
2013-06-22 01:07:00,74.8,64.4,29.85,South,180,3.0,3.0,70,0.00,,---,0.00,VWS V14.00,2013-06-22 06:07:00,
2013-06-22 01:08:00,74.8,64.4,29.85,South,180,4.1,4.1,70,0.00,,---,0.00,VWS V14.00,2013-06-22 06:08:00,
2013-06-22 01:09:00,74.8,64.4,29.85,SW,225,4.6,4.6,70,0.00,,---,0.00,VWS V14.00,2013-06-22 06:09:00,
2013-06-22 01:10:00,74.8,64.4,29.85,SW,225,4.6,4.6,70,0.00,,---,0.00,VWS V14.00,2013-06-22 06:10:00,
2013-06-22 01:11:00,74.8,64.4,29.85,ESE,112,2.7,2.9,70,0.00,,---,0.00,VWS V14.00,2013-06-22 06:11:00,
2013-06-22 01:12:00,74.8,64.4,29.85,SSW,202,4.4,4.4,70,0.00,,---,0.00,VWS V14.00,2013-06-22 06:12:00,
2013-06-22 01:13:00,74.8,64.4,29.85,SSW,202,4.6,4.6,70,0.00,,---,0.00,VWS V14.00,2013-06-22 06:13:00,
2013-06-22 01:14:00,74.8,64.4,29.85,SSW,202,4.9,4.9,70,0.00,,---,0.00,VWS V14.00,2013-06-22 06:14:00,
2013-06-22 01:15:00,74.8,64.4,29.85,SSW,202,3.5,3.5,70,0.00,,---,0.00,VWS V14.00,2013-06-22 06:15:00,
2013-06-22 01:16:00,74.8,64.4,29.85,South,180,4.1,4.1,70,0.00,,---,0.00,VWS V14.00,2013-06-22 06:16:00,
2013-06-22 01:17:00,74.8,64.8,29.85,South,180,4.1,4.1,71,0.00,,---,0.00,VWS V14.00,2013-06-22 06:17:00,
2013-06-22 01:18:00,74.8,64.8,29.85,SSW,202,4.6,4.6,71,0.00,,---,0.00,VWS V14.00,2013-06-22 06:18:00,
2013-06-22 01:19:00,74.8,64.8,29.85,SSE,158,5.5,5.5,71,0.00,,---,0.00,VWS V14.00,2013-06-22 06:19:00,
2013-06-22 01:20:00,74.8,64.8,29.85,SSE,158,3.0,3.1,71,0.00,,---,0.00,VWS V14.00,2013-06-22 06:20:00,
2013-06-22 01:21:00,74.8,64.8,29.85,SSE,158,3.0,3.1,71,0.00,,---,0.00,VWS V14.00,2013-06-22 06:21:00,
2013-06-22 01:22:00,74.8,64.8,29.85,South,180,3.8,3.8,71,0.00,,---,0.00,VWS V14.00,2013-06-22 06:22:00,
2013-06-22 01:23:00,74.8,64.8,29.85,SSW,202,2.7,3.6,71,0.00,,---,0.00,VWS V14.00,2013-06-22 06:23:00,
2013-06-22 01:24:00,74.8,64.8,29.85,SSW,202,3.5,3.5,71,0.00,,---,0.00,VWS V14.00,2013-06-22 06:24:00,
2013-06-22 01:25:00,74.8,64.8,29.85,SW,225,4.9,4.9,71,0.00,,---,0.00,VWS V14.00,2013-06-22 06:25:00,
2013-06-22 01:26:00,74.8,64.8,29.85,SSW,202,3.8,3.8,71,0.00,,---,0.00,VWS V14.00,2013-06-22 06:26:00,
2013-06-22 01:27:00,74.8,64.8,29.85,SSE,158,3.0,3.0,71,0.00,,---,0.00,VWS V14.00,2013-06-22 06:27:00,
2013-06-22 01:28:00,74.8,64.8,29.85,South,180,3.0,3.0,71,0.00,,---,0.00,VWS V14.00,2013-06-22 06:28:00,
2013-06-22 01:29:00,74.8,64.8,29.85,SSW,202,2.4,2.4,71,0.00,,---,0.00,VWS V14.00,2013-06-22 06:29:00,
2013-06-22 01:30:00,74.8,64.8,29.85,SW,225,3.5,3.5,71,0.00,,---,0.00,VWS V14.00,2013-06-22 06:30:00,
2013-06-22 01:31:00,74.8,64.8,29.85,SW,225,3.5,3.5,71,0.00,,---,0.00,VWS V14.00,2013-06-22 06:31:00,
2013-06-22 01:32:00,74.8,64.8,29.85,WSW,248,2.7,2.7,71,0.00,,---,0.00,VWS V14.00,2013-06-22 06:32:00,
2013-06-22 01:33:00,74.8,64.8,29.85,WSW,248,2.4,2.4,71,0.00,,---,0.00,VWS V14.00,2013-06-22 06:33:00,
2013-06-22 01:34:00,74.8,64.8,29.85,WSW,248,2.4,2.4,71,0.00,,---,0.00,VWS V14.00,2013-06-22 06:34:00,
2013-06-22 01:35:00,74.7,64.6,29.85,WSW,248,2.1,2.1,71,0.00,,---,0.00,VWS V14.00,2013-06-22 06:35:00,
2013-06-22 01:36:00,74.7,64.6,29.85,WSW,248,2.1,2.1,71,0.00,,---,0.00,VWS V14.00,2013-06-22 06:36:00,
2013-06-22 01:37:00,74.7,64.6,29.85,WSW,248,2.1,2.1,71,0.00,,---,0.00,VWS V14.00,2013-06-22 06:37:00,
2013-06-22 01:38:00,74.7,64.6,29.85,SW,225,3.8,3.8,71,0.00,,---,0.00,VWS V14.00,2013-06-22 06:38:00,
2013-06-22 01:39:00,74.7,64.6,29.85,WSW,248,4.4,4.4,71,0.00,,---,0.00,VWS V14.00,2013-06-22 06:39:00,
2013-06-22 01:41:00,74.7,64.6,29.85,WSW,248,3.8,3.8,71,0.00,,---,0.00,VWS V14.00,2013-06-22 06:41:00,
2013-06-22 01:42:00,74.5,64.5,29.85,SSW,202,3.0,3.0,71,0.00,,---,0.00,VWS V14.00,2013-06-22 06:42:00,
2013-06-22 01:43:00,74.5,64.5,29.85,SW,225,2.4,2.5,71,0.00,,---,0.00,VWS V14.00,2013-06-22 06:43:00,
2013-06-22 01:44:00,74.5,64.5,29.85,SW,225,4.6,4.6,71,0.00,,---,0.00,VWS V14.00,2013-06-22 06:44:00,
2013-06-22 01:45:00,74.5,64.5,29.85,South,180,4.1,4.1,71,0.00,,---,0.00,VWS V14.00,2013-06-22 06:45:00,
2013-06-22 01:46:00,74.5,64.9,29.85,SW,225,2.7,2.7,72,0.00,,---,0.00,VWS V14.00,2013-06-22 06:46:00,
2013-06-22 01:47:00,74.5,64.9,29.85,SW,225,2.4,2.5,72,0.00,,---,0.00,VWS V14.00,2013-06-22 06:47:00,
2013-06-22 01:48:00,74.5,64.9,29.85,SW,225,3.8,3.8,72,0.00,,---,0.00,VWS V14.00,2013-06-22 06:48:00,
2013-06-22 01:49:00,74.5,64.9,29.85,SW,225,5.2,5.2,72,0.00,,---,0.00,VWS V14.00,2013-06-22 06:49:00,
2013-06-22 01:50:00,74.3,64.7,29.85,WSW,248,4.6,4.6,72,0.00,,---,0.00,VWS V14.00,2013-06-22 06:50:00,
2013-06-22 01:51:00,74.3,64.7,29.85,SW,225,3.0,3.0,72,0.00,,---,0.00,VWS V14.00,2013-06-22 06:51:00,
2013-06-22 01:52:00,74.3,64.7,29.85,SW,225,4.1,4.1,72,0.00,,---,0.00,VWS V14.00,2013-06-22 06:52:00,
2013-06-22 01:53:00,74.3,64.7,29.85,SSW,202,3.5,3.5,72,0.00,,---,0.00,VWS V14.00,2013-06-22 06:53:00,
2013-06-22 01:54:00,74.3,64.7,29.85,South,180,2.7,2.7,72,0.00,,---,0.00,VWS V14.00,2013-06-22 06:54:00,
2013-06-22 01:55:00,74.3,64.7,29.85,SW,225,3.0,3.4,72,0.00,,---,0.00,VWS V14.00,2013-06-22 06:55:00,
2013-06-22 01:56:00,74.3,64.7,29.85,SW,225,2.4,2.5,72,0.00,,---,0.00,VWS V14.00,2013-06-22 06:56:00,
2013-06-22 01:57:00,74.3,64.7,29.85,SW,225,4.6,4.6,72,0.00,,---,0.00,VWS V14.00,2013-06-22 06:57:00,
2013-06-22 01:58:00,74.3,64.7,29.85,SW,225,5.5,5.5,72,0.00,,---,0.00,VWS V14.00,2013-06-22 06:58:00,
2013-06-22 01:59:00,74.3,65.1,29.85,SSW,202,3.0,3.6,73,0.00,,---,0.00,VWS V14.00,2013-06-22 06:59:00,
2013-06-22 02:00:00,74.3,65.1,29.85,SSW,202,2.1,2.2,73,0.00,,---,0.00,VWS V14.00,2013-06-22 07:00:00,
2013-06-22 02:01:00,74.3,65.1,29.85,SSW,202,2.7,2.7,73,0.00,,---,0.00,VWS V14.00,2013-06-22 07:01:00,
2013-06-22 02:02:00,74.3,65.1,29.85,SSW,202,2.1,2.1,73,0.00,,---,0.00,VWS V14.00,2013-06-22 07:02:00,
2013-06-22 02:03:00,74.3,65.1,29.85,SSW,202,3.0,3.1,73,0.00,,---,0.00,VWS V14.00,2013-06-22 07:03:00,
2013-06-22 02:04:00,74.3,65.1,29.85,South,180,3.5,3.5,73,0.00,,---,0.00,VWS V14.00,2013-06-22 07:04:00,
2013-06-22 02:05:00,74.3,65.1,29.85,SW,225,3.0,3.0,73,0.00,,---,0.00,VWS V14.00,2013-06-22 07:05:00,
2013-06-22 02:06:00,74.3,65.1,29.85,SW,225,3.0,3.0,73,0.00,,---,0.00,VWS V14.00,2013-06-22 07:06:00,
2013-06-22 02:07:00,74.3,65.1,29.85,SW,225,3.5,3.5,73,0.00,,---,0.00,VWS V14.00,2013-06-22 07:07:00,
2013-06-22 02:08:00,74.1,64.9,29.85,SSW,202,2.7,2.7,73,0.00,,---,0.00,VWS V14.00,2013-06-22 07:08:00,
2013-06-22 02:09:00,74.1,64.9,29.85,South,180,3.0,3.0,73,0.00,,---,0.00,VWS V14.00,2013-06-22 07:09:00,
2013-06-22 02:10:00,74.1,64.9,29.85,SSW,202,3.0,3.0,73,0.00,,---,0.00,VWS V14.00,2013-06-22 07:10:00,
2013-06-22 02:11:00,74.1,64.9,29.85,SSW,202,3.0,3.0,73,0.00,,---,0.00,VWS V14.00,2013-06-22 07:11:00,
2013-06-22 02:12:00,74.1,64.9,29.85,South,180,3.5,3.5,73,0.00,,---,0.00,VWS V14.00,2013-06-22 07:12:00,
2013-06-22 02:13:00,74.1,64.9,29.85,SSW,202,2.7,2.7,73,0.00,,---,0.00,VWS V14.00,2013-06-22 07:13:00,
2013-06-22 02:14:00,74.1,64.9,29.85,SSW,202,2.4,2.4,73,0.00,,---,0.00,VWS V14.00,2013-06-22 07:14:00,
2013-06-22 02:15:00,74.1,64.9,29.85,SSW,202,1.0,1.3,73,0.00,,---,0.00,VWS V14.00,2013-06-22 07:15:00,
2013-06-22 02:16:00,74.1,64.9,29.85,SSE,158,3.5,3.5,73,0.00,,---,0.00,VWS V14.00,2013-06-22 07:16:00,
2013-06-22 02:17:00,74.1,64.9,29.85,South,180,2.1,2.1,73,0.00,,---,0.00,VWS V14.00,2013-06-22 07:17:00,
2013-06-22 02:18:00,73.9,65.1,29.85,SSW,202,2.7,2.7,74,0.00,,---,0.00,VWS V14.00,2013-06-22 07:18:00,
2013-06-22 02:19:00,73.9,65.1,29.85,SSW,202,2.4,2.4,74,0.00,,---,0.00,VWS V14.00,2013-06-22 07:19:00,
2013-06-22 02:20:00,73.9,65.1,29.85,SSW,202,2.1,2.1,74,0.00,,---,0.00,VWS V14.00,2013-06-22 07:20:00,
2013-06-22 02:21:00,73.9,65.1,29.85,South,180,4.4,4.4,74,0.00,,---,0.00,VWS V14.00,2013-06-22 07:21:00,
2013-06-22 02:22:00,73.9,65.1,29.85,South,180,2.4,2.7,74,0.00,,---,0.00,VWS V14.00,2013-06-22 07:22:00,
2013-06-22 02:23:00,73.9,65.1,29.85,South,180,3.5,3.5,74,0.00,,---,0.00,VWS V14.00,2013-06-22 07:23:00,
2013-06-22 02:24:00,73.9,65.1,29.85,South,180,3.5,3.5,74,0.00,,---,0.00,VWS V14.00,2013-06-22 07:24:00,
2013-06-22 02:25:00,73.8,65.0,29.85,South,180,3.0,3.0,74,0.00,,---,0.00,VWS V14.00,2013-06-22 07:25:00,
2013-06-22 02:26:00,73.8,65.0,29.85,South,180,3.0,3.0,74,0.00,,---,0.00,VWS V14.00,2013-06-22 07:26:00,
2013-06-22 02:27:00,73.8,65.0,29.85,South,180,1.0,1.6,74,0.00,,---,0.00,VWS V14.00,2013-06-22 07:27:00,
2013-06-22 02:28:00,73.8,65.0,29.85,South,180,1.0,0.0,74,0.00,,---,0.00,VWS V14.00,2013-06-22 07:28:00,
2013-06-22 02:29:00,73.8,65.0,29.85,South,180,1.0,0.0,74,0.00,,---,0.00,VWS V14.00,2013-06-22 07:29:00,
2013-06-22 02:30:00,73.8,65.0,29.85,South,180,2.7,2.7,74,0.00,,---,0.00,VWS V14.00,2013-06-22 07:30:00,
2013-06-22 02:31:00,73.8,65.0,29.85,South,180,1.0,1.3,74,0.00,,---,0.00,VWS V14.00,2013-06-22 07:31:00,
2013-06-22 02:32:00,73.8,65.0,29.88,SSW,202,1.0,0.0,74,0.00,,---,0.00,VWS V14.00,2013-06-22 07:32:00,
2013-06-22 02:33:00,73.8,65.0,29.88,SSW,202,1.0,1.1,74,0.00,,---,0.00,VWS V14.00,2013-06-22 07:33:00,
2013-06-22 02:34:00,73.8,65.0,29.88,SSW,202,1.0,0.0,74,0.00,,---,0.00,VWS V14.00,2013-06-22 07:34:00,
2013-06-22 02:35:00,73.6,64.8,29.88,SSW,202,1.0,0.0,74,0.00,,---,0.00,VWS V14.00,2013-06-22 07:35:00,
2013-06-22 02:36:00,73.6,64.8,29.88,SSW,202,2.7,2.7,74,0.00,,---,0.00,VWS V14.00,2013-06-22 07:36:00,
2013-06-22 02:37:00,73.6,65.2,29.88,SSW,202,2.7,2.7,75,0.00,,---,0.00,VWS V14.00,2013-06-22 07:37:00,
2013-06-22 02:38:00,73.6,65.2,29.88,SSW,202,2.1,2.1,75,0.00,,---,0.00,VWS V14.00,2013-06-22 07:38:00,
2013-06-22 02:39:00,73.6,65.2,29.88,SSW,202,2.1,2.1,75,0.00,,---,0.00,VWS V14.00,2013-06-22 07:39:00,
2013-06-22 02:40:00,73.6,65.2,29.88,SSW,202,2.1,2.1,75,0.00,,---,0.00,VWS V14.00,2013-06-22 07:40:00,
2013-06-22 02:41:00,73.6,65.2,29.88,SW,225,1.0,1.3,75,0.00,,---,0.00,VWS V14.00,2013-06-22 07:41:00,
2013-06-22 02:42:00,73.4,65.0,29.88,SW,225,2.7,2.7,75,0.00,,---,0.00,VWS V14.00,2013-06-22 07:42:00,
2013-06-22 02:43:00,73.4,65.0,29.88,SSW,202,2.7,2.7,75,0.00,,---,0.00,VWS V14.00,2013-06-22 07:43:00,
2013-06-22 02:44:00,73.4,65.0,29.88,SW,225,2.7,2.7,75,0.00,,---,0.00,VWS V14.00,2013-06-22 07:44:00,
2013-06-22 02:45:00,73.4,65.0,29.88,SW,225,2.7,2.7,75,0.00,,---,0.00,VWS V14.00,2013-06-22 07:45:00,
2013-06-22 02:46:00,73.4,65.0,29.88,SW,225,2.4,2.4,75,0.00,,---,0.00,VWS V14.00,2013-06-22 07:46:00,
2013-06-22 02:47:00,73.4,65.0,29.85,SW,225,3.0,3.0,75,0.00,,---,0.00,VWS V14.00,2013-06-22 07:47:00,
2013-06-22 02:48:00,73.4,65.0,29.85,SW,225,3.0,3.0,75,0.00,,---,0.00,VWS V14.00,2013-06-22 07:48:00,
2013-06-22 02:49:00,73.4,65.0,29.85,SW,225,1.0,1.6,75,0.00,,---,0.00,VWS V14.00,2013-06-22 07:49:00,
2013-06-22 02:50:00,73.4,65.0,29.85,SW,225,1.0,0.0,75,0.00,,---,0.00,VWS V14.00,2013-06-22 07:50:00,
2013-06-22 02:51:00,73.4,65.0,29.85,SW,225,2.1,2.1,75,0.00,,---,0.00,VWS V14.00,2013-06-22 07:51:00,
2013-06-22 02:53:00,73.2,65.2,29.85,SW,225,2.7,2.7,76,0.00,,---,0.00,VWS V14.00,2013-06-22 07:53:00,
2013-06-22 02:54:00,73.2,65.2,29.85,SW,225,2.1,2.1,76,0.00,,---,0.00,VWS V14.00,2013-06-22 07:54:00,
2013-06-22 02:55:00,73.2,65.2,29.85,SW,225,2.1,2.1,76,0.00,,---,0.00,VWS V14.00,2013-06-22 07:55:00,
2013-06-22 02:56:00,73.2,65.2,29.85,SW,225,2.7,2.7,76,0.00,,---,0.00,VWS V14.00,2013-06-22 07:56:00,
2013-06-22 02:57:00,73.0,65.0,29.85,SW,225,2.7,2.7,76,0.00,,---,0.00,VWS V14.00,2013-06-22 07:57:00,
2013-06-22 02:58:00,73.0,65.0,29.85,SW,225,2.4,2.4,76,0.00,,---,0.00,VWS V14.00,2013-06-22 07:58:00,
2013-06-22 02:59:00,73.0,65.0,29.85,SW,225,1.0,1.1,76,0.00,,---,0.00,VWS V14.00,2013-06-22 07:59:00,
2013-06-22 03:00:00,73.0,65.0,29.85,SW,225,1.0,0.0,76,0.00,,---,0.00,VWS V14.00,2013-06-22 08:00:00,
2013-06-22 03:01:00,73.0,65.0,29.85,SW,225,1.0,0.0,76,0.00,,---,0.00,VWS V14.00,2013-06-22 08:01:00,
2013-06-22 03:02:00,73.0,65.0,29.85,SW,225,1.0,0.0,76,0.00,,---,0.00,VWS V14.00,2013-06-22 08:02:00,
2013-06-22 03:03:00,73.0,65.0,29.85,SW,225,3.5,3.5,76,0.00,,---,0.00,VWS V14.00,2013-06-22 08:03:00,
2013-06-22 03:04:00,73.0,65.0,29.85,SSW,202,2.1,2.1,76,0.00,,---,0.00,VWS V14.00,2013-06-22 08:04:00,
2013-06-22 03:05:00,73.0,65.4,29.85,SSW,202,2.4,2.4,77,0.00,,---,0.00,VWS V14.00,2013-06-22 08:05:00,
2013-06-22 03:06:00,73.0,65.4,29.85,SSW,202,1.0,1.1,77,0.00,,---,0.00,VWS V14.00,2013-06-22 08:06:00,
2013-06-22 03:07:00,73.0,65.4,29.85,SSW,202,1.0,1.1,77,0.00,,---,0.00,VWS V14.00,2013-06-22 08:07:00,
2013-06-22 03:08:00,72.9,65.2,29.85,SSW,202,2.4,2.4,77,0.00,,---,0.00,VWS V14.00,2013-06-22 08:08:00,
2013-06-22 03:09:00,72.9,65.2,29.85,SSW,202,2.1,2.1,77,0.00,,---,0.00,VWS V14.00,2013-06-22 08:09:00,
2013-06-22 03:10:00,72.9,65.2,29.85,SSW,202,2.4,2.4,77,0.00,,---,0.00,VWS V14.00,2013-06-22 08:10:00,
2013-06-22 03:11:00,72.9,65.2,29.85,SSW,202,2.7,2.7,77,0.00,,---,0.00,VWS V14.00,2013-06-22 08:11:00,
2013-06-22 03:12:00,72.9,65.2,29.85,SSW,202,1.0,1.0,77,0.00,,---,0.00,VWS V14.00,2013-06-22 08:12:00,
2013-06-22 03:13:00,72.9,65.2,29.85,SSW,202,1.0,1.0,77,0.00,,---,0.00,VWS V14.00,2013-06-22 08:13:00,
2013-06-22 03:14:00,72.9,65.2,29.85,SSW,202,1.0,0.0,77,0.00,,---,0.00,VWS V14.00,2013-06-22 08:14:00,
2013-06-22 03:15:00,72.9,65.2,29.85,SSW,202,3.0,3.0,77,0.00,,---,0.00,VWS V14.00,2013-06-22 08:15:00,
2013-06-22 03:16:00,72.9,65.2,29.85,SSW,202,2.4,2.4,77,0.00,,---,0.00,VWS V14.00,2013-06-22 08:16:00,
2013-06-22 03:18:00,72.9,65.2,29.85,SSW,202,2.7,2.7,77,0.00,,---,0.00,VWS V14.00,2013-06-22 08:18:00,
2013-06-22 03:19:00,72.7,65.1,29.85,SSW,202,1.0,1.3,77,0.00,,---,0.00,VWS V14.00,2013-06-22 08:19:00,
2013-06-22 03:20:00,72.7,65.1,29.85,SSW,202,1.0,0.0,77,0.00,,---,0.00,VWS V14.00,2013-06-22 08:20:00,
2013-06-22 03:21:00,72.9,65.2,29.85,SSW,202,1.0,0.0,77,0.00,,---,0.00,VWS V14.00,2013-06-22 08:21:00,
2013-06-22 03:22:00,72.9,65.2,29.85,SSW,202,1.0,0.0,77,0.00,,---,0.00,VWS V14.00,2013-06-22 08:22:00,
2013-06-22 03:23:00,72.9,65.2,29.85,SSW,202,1.0,0.0,77,0.00,,---,0.00,VWS V14.00,2013-06-22 08:23:00,
2013-06-22 03:24:00,72.9,65.2,29.85,SSW,202,1.0,0.0,77,0.00,,---,0.00,VWS V14.00,2013-06-22 08:24:00,
2013-06-22 03:25:00,72.9,65.2,29.85,SSW,202,1.0,0.0,77,0.00,,---,0.00,VWS V14.00,2013-06-22 08:25:00,
2013-06-22 03:26:00,72.9,65.2,29.85,SSW,202,1.0,0.0,77,0.00,,---,0.00,VWS V14.00,2013-06-22 08:26:00,
2013-06-22 03:27:00,72.7,65.1,29.85,SSW,202,2.1,2.1,77,0.00,,---,0.00,VWS V14.00,2013-06-22 08:27:00,
2013-06-22 03:28:00,72.7,65.1,29.85,SSW,202,2.1,2.1,77,0.00,,---,0.00,VWS V14.00,2013-06-22 08:28:00,
2013-06-22 03:29:00,72.7,65.4,29.85,SSW,202,2.1,2.1,78,0.00,,---,0.00,VWS V14.00,2013-06-22 08:29:00,
2013-06-22 03:30:00,72.7,65.4,29.85,SSW,202,2.1,2.1,78,0.00,,---,0.00,VWS V14.00,2013-06-22 08:30:00,
2013-06-22 03:31:00,72.7,65.4,29.85,SSW,202,1.0,1.0,78,0.00,,---,0.00,VWS V14.00,2013-06-22 08:31:00,
2013-06-22 03:32:00,72.7,65.4,29.85,SSW,202,1.0,0.0,78,0.00,,---,0.00,VWS V14.00,2013-06-22 08:32:00,
2013-06-22 03:33:00,72.7,65.4,29.85,SSW,202,1.0,0.0,78,0.00,,---,0.00,VWS V14.00,2013-06-22 08:33:00,
2013-06-22 03:34:00,72.7,65.4,29.85,SSW,202,1.0,0.0,78,0.00,,---,0.00,VWS V14.00,2013-06-22 08:34:00,
2013-06-22 03:35:00,72.5,65.3,29.85,SSW,202,1.0,0.0,78,0.00,,---,0.00,VWS V14.00,2013-06-22 08:35:00,
2013-06-22 03:36:00,72.5,65.3,29.85,SSW,202,1.0,0.0,78,0.00,,---,0.00,VWS V14.00,2013-06-22 08:36:00,
2013-06-22 03:37:00,72.5,65.3,29.85,SSW,202,1.0,0.0,78,0.00,,---,0.00,VWS V14.00,2013-06-22 08:37:00,
2013-06-22 03:38:00,72.5,65.3,29.85,SSW,202,1.0,0.0,78,0.00,,---,0.00,VWS V14.00,2013-06-22 08:38:00,
2013-06-22 03:39:00,72.5,65.3,29.85,SSW,202,1.0,0.0,78,0.00,,---,0.00,VWS V14.00,2013-06-22 08:39:00,
2013-06-22 03:40:00,72.5,65.3,29.85,SSW,202,1.0,0.0,78,0.00,,---,0.00,VWS V14.00,2013-06-22 08:40:00,
2013-06-22 03:41:00,72.5,65.3,29.85,SSW,202,1.0,0.0,78,0.00,,---,0.00,VWS V14.00,2013-06-22 08:41:00,
2013-06-22 03:42:00,72.5,65.3,29.85,SSW,202,1.0,0.0,78,0.00,,---,0.00,VWS V14.00,2013-06-22 08:42:00,
2013-06-22 03:43:00,72.5,65.3,29.85,SSW,202,1.0,0.0,78,0.00,,---,0.00,VWS V14.00,2013-06-22 08:43:00,
2013-06-22 03:44:00,72.5,65.3,29.85,SSW,202,1.0,0.0,78,0.00,,---,0.00,VWS V14.00,2013-06-22 08:44:00,
2013-06-22 03:45:00,72.3,65.1,29.85,SSW,202,1.0,0.0,78,0.00,,---,0.00,VWS V14.00,2013-06-22 08:45:00,
2013-06-22 03:46:00,72.3,65.1,29.85,SSW,202,1.0,0.0,78,0.00,,---,0.00,VWS V14.00,2013-06-22 08:46:00,
2013-06-22 03:47:00,72.3,65.1,29.85,SSW,202,1.0,0.0,78,0.00,,---,0.00,VWS V14.00,2013-06-22 08:47:00,
2013-06-22 03:48:00,72.3,65.1,29.85,SSW,202,1.0,0.0,78,0.00,,---,0.00,VWS V14.00,2013-06-22 08:48:00,
2013-06-22 03:49:00,72.3,65.1,29.85,SSW,202,1.0,0.0,78,0.00,,---,0.00,VWS V14.00,2013-06-22 08:49:00,
2013-06-22 03:50:00,72.3,65.1,29.85,SSW,202,1.0,0.0,78,0.00,,---,0.00,VWS V14.00,2013-06-22 08:50:00,
2013-06-22 03:51:00,72.3,65.1,29.85,SSW,202,1.0,0.0,78,0.00,,---,0.00,VWS V14.00,2013-06-22 08:51:00,
2013-06-22 03:52:00,72.3,65.1,29.85,SSW,202,1.0,0.0,78,0.00,,---,0.00,VWS V14.00,2013-06-22 08:52:00,
2013-06-22 03:53:00,72.1,64.9,29.85,SSW,202,1.0,0.0,78,0.00,,---,0.00,VWS V14.00,2013-06-22 08:53:00,
2013-06-22 03:54:00,72.3,65.1,29.85,SSW,202,1.0,0.0,78,0.00,,---,0.00,VWS V14.00,2013-06-22 08:54:00,
2013-06-22 03:55:00,72.1,64.9,29.85,SSW,202,1.0,0.0,78,0.00,,---,0.00,VWS V14.00,2013-06-22 08:55:00,
2013-06-22 03:56:00,72.1,64.9,29.85,SSW,202,1.0,0.0,78,0.00,,---,0.00,VWS V14.00,2013-06-22 08:56:00,
2013-06-22 03:57:00,72.3,65.1,29.85,SSW,202,1.0,0.0,78,0.00,,---,0.00,VWS V14.00,2013-06-22 08:57:00,
2013-06-22 03:58:00,72.1,64.9,29.85,SSW,202,1.0,0.0,78,0.00,,---,0.00,VWS V14.00,2013-06-22 08:58:00,
2013-06-22 03:59:00,72.1,64.9,29.85,SSW,202,1.0,0.0,78,0.00,,---,0.00,VWS V14.00,2013-06-22 08:59:00,
2013-06-22 04:00:00,72.1,65.3,29.85,SSW,202,1.0,0.0,79,0.00,,---,0.00,VWS V14.00,2013-06-22 09:00:00,
2013-06-22 04:01:00,72.1,65.3,29.85,SSW,202,1.0,0.0,79,0.00,,---,0.00,VWS V14.00,2013-06-22 09:01:00,
2013-06-22 04:02:00,72.1,65.3,29.85,SSW,202,1.0,0.0,79,0.00,,---,0.00,VWS V14.00,2013-06-22 09:02:00,
2013-06-22 04:03:00,72.1,65.3,29.85,SSW,202,1.0,0.0,79,0.00,,---,0.00,VWS V14.00,2013-06-22 09:03:00,
2013-06-22 04:04:00,72.1,65.3,29.85,SSW,202,1.0,0.0,79,0.00,,---,0.00,VWS V14.00,2013-06-22 09:04:00,
2013-06-22 04:05:00,72.0,65.1,29.85,SSW,202,1.0,0.0,79,0.00,,---,0.00,VWS V14.00,2013-06-22 09:05:00,
2013-06-22 04:06:00,72.0,65.1,29.85,SSW,202,1.0,0.0,79,0.00,,---,0.00,VWS V14.00,2013-06-22 09:06:00,
2013-06-22 04:07:00,72.0,65.1,29.85,SSW,202,1.0,0.0,79,0.00,,---,0.00,VWS V14.00,2013-06-22 09:07:00,
2013-06-22 04:08:00,72.0,65.1,29.85,SSW,202,1.0,0.0,79,0.00,,---,0.00,VWS V14.00,2013-06-22 09:08:00,
2013-06-22 04:09:00,72.0,65.1,29.85,SSW,202,1.0,0.0,79,0.00,,---,0.00,VWS V14.00,2013-06-22 09:09:00,
2013-06-22 04:10:00,72.0,65.1,29.85,SSW,202,1.0,0.0,79,0.00,,---,0.00,VWS V14.00,2013-06-22 09:10:00,
2013-06-22 04:11:00,72.0,65.1,29.85,SSW,202,1.0,0.0,79,0.00,,---,0.00,VWS V14.00,2013-06-22 09:11:00,
2013-06-22 04:12:00,72.0,65.1,29.85,SSW,202,1.0,0.0,79,0.00,,---,0.00,VWS V14.00,2013-06-22 09:12:00,
2013-06-22 04:13:00,72.0,65.1,29.85,SSW,202,1.0,0.0,79,0.00,,---,0.00,VWS V14.00,2013-06-22 09:13:00,
2013-06-22 04:14:00,72.0,65.5,29.85,SSW,202,1.0,0.0,80,0.00,,---,0.00,VWS V14.00,2013-06-22 09:14:00,
2013-06-22 04:15:00,72.0,65.5,29.85,SSW,202,1.0,0.0,80,0.00,,---,0.00,VWS V14.00,2013-06-22 09:15:00,
2013-06-22 04:16:00,72.0,65.5,29.85,SSW,202,1.0,0.0,80,0.00,,---,0.00,VWS V14.00,2013-06-22 09:16:00,
2013-06-22 04:17:00,72.0,65.5,29.85,SSW,202,1.0,0.0,80,0.00,,---,0.00,VWS V14.00,2013-06-22 09:17:00,
2013-06-22 04:18:00,72.0,65.5,29.85,SSW,202,1.0,0.0,80,0.00,,---,0.00,VWS V14.00,2013-06-22 09:18:00,
2013-06-22 04:19:00,72.0,65.5,29.85,SSW,202,1.0,0.0,80,0.00,,---,0.00,VWS V14.00,2013-06-22 09:19:00,
2013-06-22 04:20:00,71.8,65.3,29.85,SSW,202,1.0,0.0,80,0.00,,---,0.00,VWS V14.00,2013-06-22 09:20:00,
2013-06-22 04:21:00,71.8,65.3,29.85,SSW,202,1.0,0.0,80,0.00,,---,0.00,VWS V14.00,2013-06-22 09:21:00,
2013-06-22 04:22:00,71.8,65.3,29.85,SSW,202,1.0,0.0,80,0.00,,---,0.00,VWS V14.00,2013-06-22 09:22:00,
2013-06-22 04:23:00,71.8,65.3,29.85,SSW,202,2.7,2.7,80,0.00,,---,0.00,VWS V14.00,2013-06-22 09:23:00,
2013-06-22 04:24:00,71.8,65.3,29.85,SSW,202,2.1,2.1,80,0.00,,---,0.00,VWS V14.00,2013-06-22 09:24:00,
2013-06-22 04:25:00,71.8,65.3,29.85,SSW,202,3.0,3.0,80,0.00,,---,0.00,VWS V14.00,2013-06-22 09:25:00,
2013-06-22 04:26:00,71.8,65.3,29.85,SSW,202,1.0,1.6,80,0.00,,---,0.00,VWS V14.00,2013-06-22 09:26:00,
2013-06-22 04:27:00,71.8,65.3,29.85,SSW,202,1.0,1.1,80,0.00,,---,0.00,VWS V14.00,2013-06-22 09:27:00,
2013-06-22 04:28:00,71.8,65.3,29.85,SSW,202,3.0,3.0,80,0.00,,---,0.00,VWS V14.00,2013-06-22 09:28:00,
2013-06-22 04:29:00,71.8,65.3,29.85,SSW,202,1.0,1.6,80,0.00,,---,0.00,VWS V14.00,2013-06-22 09:29:00,
2013-06-22 04:30:00,71.6,65.1,29.85,SSW,202,2.7,2.7,80,0.00,,---,0.00,VWS V14.00,2013-06-22 09:30:00,
2013-06-22 04:31:00,71.6,65.1,29.85,SSW,202,1.0,1.3,80,0.00,,---,0.00,VWS V14.00,2013-06-22 09:31:00,
2013-06-22 04:32:00,71.6,65.1,29.85,SSW,202,1.0,0.0,80,0.00,,---,0.00,VWS V14.00,2013-06-22 09:32:00,
2013-06-22 04:33:00,71.6,65.1,29.85,SSW,202,1.0,0.0,80,0.00,,---,0.00,VWS V14.00,2013-06-22 09:33:00,
2013-06-22 04:34:00,71.6,65.1,29.85,SSW,202,2.4,2.4,80,0.00,,---,0.00,VWS V14.00,2013-06-22 09:34:00,
2013-06-22 04:35:00,71.6,65.1,29.85,SSW,202,2.4,2.4,80,0.00,,---,0.00,VWS V14.00,2013-06-22 09:35:00,
2013-06-22 04:36:00,71.6,65.1,29.85,SSW,202,2.7,2.7,80,0.00,,---,0.00,VWS V14.00,2013-06-22 09:36:00,
2013-06-22 04:37:00,71.6,65.1,29.85,SSW,202,2.7,2.7,80,0.00,,---,0.00,VWS V14.00,2013-06-22 09:37:00,
2013-06-22 04:38:00,71.6,65.1,29.85,SSW,202,1.0,1.3,80,0.00,,---,0.00,VWS V14.00,2013-06-22 09:38:00,
2013-06-22 04:39:00,71.6,65.5,29.85,SSW,202,1.0,0.0,81,0.00,,---,0.00,VWS V14.00,2013-06-22 09:39:00,
2013-06-22 04:40:00,71.6,65.5,29.85,SSW,202,1.0,0.0,81,0.00,,---,0.00,VWS V14.00,2013-06-22 09:40:00,
2013-06-22 04:41:00,71.6,65.5,29.85,SSW,202,1.0,1.1,81,0.00,,---,0.00,VWS V14.00,2013-06-22 09:41:00,
2013-06-22 04:42:00,71.6,65.5,29.85,SW,225,2.7,2.7,81,0.00,,---,0.00,VWS V14.00,2013-06-22 09:42:00,
2013-06-22 04:43:00,71.6,65.5,29.85,SW,225,1.0,2.5,81,0.00,,---,0.00,VWS V14.00,2013-06-22 09:43:00,
2013-06-22 04:44:00,71.6,65.5,29.85,SW,225,1.0,1.6,81,0.00,,---,0.00,VWS V14.00,2013-06-22 09:44:00,
2013-06-22 04:45:00,71.6,65.5,29.85,SW,225,1.0,0.0,81,0.00,,---,0.00,VWS V14.00,2013-06-22 09:45:00,
2013-06-22 04:46:00,71.6,65.5,29.85,SW,225,3.0,3.0,81,0.00,,---,0.00,VWS V14.00,2013-06-22 09:46:00,
2013-06-22 04:47:00,71.6,65.5,29.85,SW,225,3.5,3.5,81,0.00,,---,0.00,VWS V14.00,2013-06-22 09:47:00,
2013-06-22 04:48:00,71.6,65.5,29.85,SW,225,2.4,2.4,81,0.00,,---,0.00,VWS V14.00,2013-06-22 09:48:00,
2013-06-22 04:49:00,71.6,65.5,29.85,SW,225,1.0,1.1,81,0.00,,---,0.00,VWS V14.00,2013-06-22 09:49:00,
2013-06-22 04:50:00,71.6,65.5,29.85,SW,225,1.0,0.0,81,0.00,,---,0.00,VWS V14.00,2013-06-22 09:50:00,
2013-06-22 04:51:00,71.6,65.5,29.85,SW,225,1.0,1.1,81,0.00,,---,0.00,VWS V14.00,2013-06-22 09:51:00,
2013-06-22 04:52:00,71.6,65.5,29.85,SW,225,2.1,2.1,81,0.00,,---,0.00,VWS V14.00,2013-06-22 09:52:00,
2013-06-22 04:53:00,71.6,65.5,29.85,SW,225,1.0,1.0,81,0.00,,---,0.00,VWS V14.00,2013-06-22 09:53:00,
2013-06-22 04:54:00,71.6,65.5,29.85,SW,225,1.0,0.0,81,0.00,,---,0.00,VWS V14.00,2013-06-22 09:54:00,
2013-06-22 04:55:00,71.6,65.5,29.85,SW,225,2.7,2.7,81,0.00,,---,0.00,VWS V14.00,2013-06-22 09:55:00,
2013-06-22 04:56:00,71.6,65.5,29.85,SE,135,3.0,3.0,81,0.00,,---,0.00,VWS V14.00,2013-06-22 09:56:00,
2013-06-22 04:57:00,71.6,65.5,29.85,SE,135,3.0,3.0,81,0.00,,---,0.00,VWS V14.00,2013-06-22 09:57:00,
2013-06-22 04:58:00,71.6,65.5,29.85,SE,135,2.4,2.4,81,0.00,,---,0.00,VWS V14.00,2013-06-22 09:58:00,
2013-06-22 04:59:00,71.6,65.5,29.85,SE,135,2.4,2.4,81,0.00,,---,0.00,VWS V14.00,2013-06-22 09:59:00,
2013-06-22 05:00:00,71.6,65.5,29.85,SE,135,3.0,3.0,81,0.00,,---,0.00,VWS V14.00,2013-06-22 10:00:00,
2013-06-22 05:01:00,71.6,65.5,29.85,SE,135,3.0,3.0,81,0.00,,---,0.00,VWS V14.00,2013-06-22 10:01:00,
2013-06-22 05:02:00,71.6,65.5,29.85,SE,135,4.1,4.1,81,0.00,,---,0.00,VWS V14.00,2013-06-22 10:02:00,
2013-06-22 05:03:00,71.6,65.5,29.85,SSE,158,3.0,3.0,81,0.00,,---,0.00,VWS V14.00,2013-06-22 10:03:00,
2013-06-22 05:04:00,71.6,65.5,29.85,SSE,158,3.8,3.8,81,0.00,,---,0.00,VWS V14.00,2013-06-22 10:04:00,
2013-06-22 05:05:00,71.6,65.5,29.85,SSE,158,3.8,3.8,81,0.00,,---,0.00,VWS V14.00,2013-06-22 10:05:00,
2013-06-22 05:06:00,71.4,65.6,29.85,SSE,158,3.5,3.5,82,0.00,,---,0.00,VWS V14.00,2013-06-22 10:06:00,
2013-06-22 05:07:00,71.4,65.6,29.85,SSE,158,1.0,2.0,82,0.00,,---,0.00,VWS V14.00,2013-06-22 10:07:00,
2013-06-22 05:08:00,71.4,65.6,29.85,SSE,158,1.0,0.0,82,0.00,,---,0.00,VWS V14.00,2013-06-22 10:08:00,
2013-06-22 05:09:00,71.4,65.6,29.85,SSE,158,1.0,0.0,82,0.00,,---,0.00,VWS V14.00,2013-06-22 10:09:00,
2013-06-22 05:10:00,71.4,65.6,29.85,SSE,158,1.0,0.0,82,0.00,,---,0.00,VWS V14.00,2013-06-22 10:10:00,
2013-06-22 05:11:00,71.4,65.6,29.85,SSE,158,1.0,0.0,82,0.00,,---,0.00,VWS V14.00,2013-06-22 10:11:00,
2013-06-22 05:12:00,71.4,65.6,29.85,SSE,158,1.0,0.0,82,0.00,,---,0.00,VWS V14.00,2013-06-22 10:12:00,
2013-06-22 05:13:00,71.4,65.6,29.85,SSE,158,1.0,0.0,82,0.00,,---,0.00,VWS V14.00,2013-06-22 10:13:00,
2013-06-22 05:14:00,71.2,65.5,29.85,SSE,158,1.0,0.0,82,0.00,,---,0.00,VWS V14.00,2013-06-22 10:14:00,
2013-06-22 05:15:00,71.2,65.5,29.85,SSE,158,1.0,0.0,82,0.00,,---,0.00,VWS V14.00,2013-06-22 10:15:00,
2013-06-22 05:16:00,71.2,65.5,29.85,SSE,158,1.0,0.0,82,0.00,,---,0.00,VWS V14.00,2013-06-22 10:16:00,
2013-06-22 05:17:00,71.2,65.5,29.85,SSE,158,1.0,0.0,82,0.00,,---,0.00,VWS V14.00,2013-06-22 10:17:00,
2013-06-22 05:18:00,71.2,65.5,29.85,SSE,158,1.0,0.0,82,0.00,,---,0.00,VWS V14.00,2013-06-22 10:18:00,
2013-06-22 05:19:00,71.2,65.5,29.85,SSE,158,1.0,0.0,82,0.00,,---,0.00,VWS V14.00,2013-06-22 10:19:00,
2013-06-22 05:20:00,71.2,65.5,29.85,SSE,158,1.0,0.0,82,0.00,,---,0.00,VWS V14.00,2013-06-22 10:20:00,
2013-06-22 05:21:00,71.2,65.5,29.85,SSE,158,1.0,0.0,82,0.00,,---,0.00,VWS V14.00,2013-06-22 10:21:00,
2013-06-22 05:22:00,71.2,65.5,29.85,SSE,158,2.4,2.4,82,0.00,,---,0.00,VWS V14.00,2013-06-22 10:22:00,
2013-06-22 05:23:00,71.1,65.3,29.85,South,180,1.0,1.1,82,0.00,,---,0.00,VWS V14.00,2013-06-22 10:23:00,
2013-06-22 05:24:00,71.1,65.3,29.85,South,180,1.0,2.2,82,0.00,,---,0.00,VWS V14.00,2013-06-22 10:24:00,
2013-06-22 05:25:00,71.1,65.6,29.85,South,180,1.0,1.6,83,0.00,,---,0.00,VWS V14.00,2013-06-22 10:25:00,
2013-06-22 05:26:00,71.1,65.6,29.85,South,180,1.0,0.0,83,0.00,,---,0.00,VWS V14.00,2013-06-22 10:26:00,
2013-06-22 05:27:00,71.1,65.6,29.85,South,180,1.0,0.0,83,0.00,,---,0.00,VWS V14.00,2013-06-22 10:27:00,
2013-06-22 05:28:00,71.1,65.6,29.85,South,180,1.0,0.0,83,0.00,,---,0.00,VWS V14.00,2013-06-22 10:28:00,
2013-06-22 05:29:00,71.1,65.6,29.85,South,180,1.0,0.0,83,0.00,,---,0.00,VWS V14.00,2013-06-22 10:29:00,
2013-06-22 05:30:00,71.1,65.6,29.85,South,180,1.0,0.0,83,0.00,,---,0.00,VWS V14.00,2013-06-22 10:30:00,
2013-06-22 05:31:00,71.1,65.6,29.85,South,180,1.0,0.0,83,0.00,,---,0.00,VWS V14.00,2013-06-22 10:31:00,
2013-06-22 05:32:00,71.1,65.6,29.85,South,180,2.1,2.1,83,0.00,,---,0.00,VWS V14.00,2013-06-22 10:32:00,
2013-06-22 05:33:00,71.1,65.6,29.85,South,180,1.0,1.0,83,0.00,,---,0.00,VWS V14.00,2013-06-22 10:33:00,
2013-06-22 05:34:00,70.9,65.5,29.85,South,180,1.0,0.0,83,0.00,,---,0.00,VWS V14.00,2013-06-22 10:34:00,
2013-06-22 05:35:00,70.9,65.5,29.85,South,180,1.0,0.0,83,0.00,,---,0.00,VWS V14.00,2013-06-22 10:35:00,
2013-06-22 05:36:00,70.9,65.5,29.85,South,180,1.0,0.0,83,0.00,,---,0.00,VWS V14.00,2013-06-22 10:36:00,
2013-06-22 05:37:00,70.9,65.5,29.85,South,180,1.0,0.0,83,0.00,,---,0.00,VWS V14.00,2013-06-22 10:37:00,
2013-06-22 05:38:00,70.9,65.5,29.85,South,180,1.0,0.0,83,0.00,,---,0.00,VWS V14.00,2013-06-22 10:38:00,
2013-06-22 05:39:00,70.9,65.5,29.85,South,180,1.0,0.0,83,0.00,,---,0.00,VWS V14.00,2013-06-22 10:39:00,
2013-06-22 05:40:00,70.9,65.5,29.85,South,180,2.4,2.4,83,0.00,,---,0.00,VWS V14.00,2013-06-22 10:40:00,
2013-06-22 05:41:00,70.9,65.5,29.85,SSW,202,2.4,2.4,83,0.00,,---,0.00,VWS V14.00,2013-06-22 10:41:00,
2013-06-22 05:42:00,70.9,65.5,29.85,SSW,202,1.0,1.3,83,0.00,,---,0.00,VWS V14.00,2013-06-22 10:42:00,
2013-06-22 05:43:00,70.9,65.5,29.85,SSW,202,1.0,1.3,83,0.00,,---,0.00,VWS V14.00,2013-06-22 10:43:00,
2013-06-22 05:44:00,70.9,65.5,29.85,SSW,202,1.0,0.0,83,0.00,,---,0.00,VWS V14.00,2013-06-22 10:44:00,
2013-06-22 05:45:00,70.9,65.5,29.85,SW,225,2.1,2.1,83,0.00,,---,0.00,VWS V14.00,2013-06-22 10:45:00,
2013-06-22 05:46:00,70.9,65.8,29.85,SW,225,2.4,2.4,84,0.00,,---,0.00,VWS V14.00,2013-06-22 10:46:00,
2013-06-22 05:47:00,70.9,65.8,29.85,SW,225,1.0,1.1,84,0.00,,---,0.00,VWS V14.00,2013-06-22 10:47:00,
2013-06-22 05:48:00,70.9,65.8,29.85,SW,225,1.0,0.0,84,0.00,,---,0.00,VWS V14.00,2013-06-22 10:48:00,
2013-06-22 05:50:00,70.9,65.8,29.85,SW,225,1.0,1.0,84,0.00,,---,0.00,VWS V14.00,2013-06-22 10:50:00,
2013-06-22 05:51:00,70.9,65.8,29.85,SW,225,1.0,0.0,84,0.00,,---,0.00,VWS V14.00,2013-06-22 10:51:00,
2013-06-22 05:52:00,70.9,65.8,29.85,SW,225,1.0,0.0,84,0.00,,---,0.00,VWS V14.00,2013-06-22 10:52:00,
2013-06-22 05:53:00,70.9,65.8,29.85,SW,225,1.0,0.0,84,0.00,,---,0.00,VWS V14.00,2013-06-22 10:53:00,
2013-06-22 05:54:00,70.9,65.8,29.85,SW,225,1.0,0.0,84,0.00,,---,0.00,VWS V14.00,2013-06-22 10:54:00,
2013-06-22 05:55:00,70.9,65.8,29.85,SW,225,1.0,0.0,84,0.00,,---,0.00,VWS V14.00,2013-06-22 10:55:00,
2013-06-22 05:56:00,70.9,65.8,29.85,SW,225,1.0,0.0,84,0.00,,---,0.00,VWS V14.00,2013-06-22 10:56:00,
2013-06-22 05:57:00,70.9,65.8,29.85,SW,225,1.0,0.0,84,0.00,,---,0.00,VWS V14.00,2013-06-22 10:57:00,
2013-06-22 05:58:00,70.9,65.8,29.85,SW,225,1.0,0.0,84,0.00,,---,0.00,VWS V14.00,2013-06-22 10:58:00,
2013-06-22 05:59:00,70.9,65.8,29.85,SW,225,1.0,0.0,84,0.00,,---,0.00,VWS V14.00,2013-06-22 10:59:00,
2013-06-22 06:00:00,70.9,65.8,29.85,SW,225,1.0,0.0,84,0.00,,---,0.00,VWS V14.00,2013-06-22 11:00:00,
2013-06-22 06:01:00,70.9,65.8,29.85,SW,225,1.0,0.0,84,0.00,,---,0.00,VWS V14.00,2013-06-22 11:01:00,
2013-06-22 06:02:00,71.1,66.0,29.85,SW,225,1.0,0.0,84,0.00,,---,0.00,VWS V14.00,2013-06-22 11:02:00,
2013-06-22 06:03:00,71.1,66.0,29.85,SW,225,1.0,0.0,84,0.00,,---,0.00,VWS V14.00,2013-06-22 11:03:00,
2013-06-22 06:04:00,71.1,66.3,29.85,SW,225,2.7,2.7,85,0.00,,---,0.00,VWS V14.00,2013-06-22 11:04:00,
2013-06-22 06:05:00,71.1,66.3,29.85,SW,225,1.0,1.3,85,0.00,,---,0.00,VWS V14.00,2013-06-22 11:05:00,
2013-06-22 06:06:00,71.1,66.3,29.85,SW,225,1.0,0.0,85,0.00,,---,0.00,VWS V14.00,2013-06-22 11:06:00,
2013-06-22 06:07:00,71.1,66.3,29.85,SW,225,1.0,0.0,85,0.00,,---,0.00,VWS V14.00,2013-06-22 11:07:00,
2013-06-22 06:08:00,71.1,66.0,29.85,SW,225,1.0,0.0,84,0.00,,---,0.00,VWS V14.00,2013-06-22 11:08:00,
2013-06-22 06:09:00,71.1,66.3,29.85,SW,225,1.0,0.0,85,0.00,,---,0.00,VWS V14.00,2013-06-22 11:09:00,
2013-06-22 06:10:00,71.1,66.3,29.85,SW,225,1.0,0.0,85,0.00,,---,0.00,VWS V14.00,2013-06-22 11:10:00,
2013-06-22 06:11:00,71.1,66.3,29.85,SW,225,1.0,0.0,85,0.00,,---,0.00,VWS V14.00,2013-06-22 11:11:00,
2013-06-22 06:12:00,71.2,66.5,29.85,SW,225,1.0,0.0,85,0.00,,---,0.00,VWS V14.00,2013-06-22 11:12:00,
2013-06-22 06:13:00,71.2,66.5,29.85,SW,225,1.0,0.0,85,0.00,,---,0.00,VWS V14.00,2013-06-22 11:13:00,
2013-06-22 06:14:00,71.2,66.5,29.85,SW,225,1.0,0.0,85,0.00,,---,0.00,VWS V14.00,2013-06-22 11:14:00,
2013-06-22 06:15:00,71.2,66.5,29.85,SW,225,1.0,0.0,85,0.00,,---,0.00,VWS V14.00,2013-06-22 11:15:00,
2013-06-22 06:16:00,71.2,66.5,29.85,SW,225,1.0,0.0,85,0.00,,---,0.00,VWS V14.00,2013-06-22 11:16:00,
2013-06-22 06:17:00,71.4,66.7,29.85,SW,225,1.0,0.0,85,0.00,,---,0.00,VWS V14.00,2013-06-22 11:17:00,
2013-06-22 06:18:00,71.4,66.7,29.85,SW,225,2.4,2.4,85,0.00,,---,0.00,VWS V14.00,2013-06-22 11:18:00,
2013-06-22 06:19:00,71.4,66.7,29.85,SW,225,1.0,1.1,85,0.00,,---,0.00,VWS V14.00,2013-06-22 11:19:00,
2013-06-22 06:20:00,71.4,66.7,29.85,SW,225,1.0,0.0,85,0.00,,---,0.00,VWS V14.00,2013-06-22 11:20:00,
2013-06-22 06:21:00,71.6,66.5,29.85,SW,225,1.0,0.0,84,0.00,,---,0.00,VWS V14.00,2013-06-22 11:21:00,
2013-06-22 06:22:00,71.6,66.5,29.85,SW,225,1.0,0.0,84,0.00,,---,0.00,VWS V14.00,2013-06-22 11:22:00,
2013-06-22 06:23:00,71.6,66.5,29.85,SW,225,1.0,0.0,84,0.00,,---,0.00,VWS V14.00,2013-06-22 11:23:00,
2013-06-22 06:24:00,71.8,66.7,29.85,SW,225,1.0,0.0,84,0.00,,---,0.00,VWS V14.00,2013-06-22 11:24:00,
2013-06-22 06:25:00,71.8,66.7,29.85,SW,225,1.0,0.0,84,0.00,,---,0.00,VWS V14.00,2013-06-22 11:25:00,
2013-06-22 06:26:00,71.8,66.7,29.85,SW,225,2.4,2.4,84,0.00,,---,0.00,VWS V14.00,2013-06-22 11:26:00,
2013-06-22 06:27:00,71.8,66.7,29.85,SW,225,2.4,2.4,84,0.00,,---,0.00,VWS V14.00,2013-06-22 11:27:00,
2013-06-22 06:28:00,72.0,66.9,29.85,SW,225,2.4,2.4,84,0.00,,---,0.00,VWS V14.00,2013-06-22 11:28:00,
2013-06-22 06:29:00,72.0,66.9,29.85,SW,225,1.0,1.1,84,0.00,,---,0.00,VWS V14.00,2013-06-22 11:29:00,
2013-06-22 06:30:00,72.0,66.9,29.85,SW,225,1.0,1.1,84,0.00,,---,0.00,VWS V14.00,2013-06-22 11:30:00,
2013-06-22 06:31:00,72.1,67.0,29.88,SW,225,1.0,0.0,84,0.00,,---,0.00,VWS V14.00,2013-06-22 11:31:00,
2013-06-22 06:32:00,72.1,67.0,29.88,SW,225,1.0,0.0,84,0.00,,---,0.00,VWS V14.00,2013-06-22 11:32:00,
2013-06-22 06:33:00,72.1,67.0,29.88,SW,225,1.0,0.0,84,0.00,,---,0.00,VWS V14.00,2013-06-22 11:33:00,
2013-06-22 06:34:00,72.3,67.2,29.88,SW,225,1.0,0.0,84,0.00,,---,0.00,VWS V14.00,2013-06-22 11:34:00,
2013-06-22 06:35:00,72.3,67.2,29.88,SW,225,1.0,0.0,84,0.00,,---,0.00,VWS V14.00,2013-06-22 11:35:00,
2013-06-22 06:36:00,72.3,67.2,29.88,SW,225,2.1,2.1,84,0.00,,---,0.00,VWS V14.00,2013-06-22 11:36:00,
2013-06-22 06:37:00,72.5,67.4,29.88,SW,225,1.0,1.0,84,0.00,,---,0.00,VWS V14.00,2013-06-22 11:37:00,
2013-06-22 06:38:00,72.7,67.6,29.88,SW,225,2.4,2.4,84,0.00,,---,0.00,VWS V14.00,2013-06-22 11:38:00,
2013-06-22 06:39:00,72.7,67.6,29.88,SW,225,1.0,1.1,84,0.00,,---,0.00,VWS V14.00,2013-06-22 11:39:00,
2013-06-22 06:40:00,72.7,67.6,29.88,SW,225,1.0,0.0,84,0.00,,---,0.00,VWS V14.00,2013-06-22 11:40:00,
2013-06-22 06:41:00,72.7,67.6,29.88,SW,225,1.0,0.0,84,0.00,,---,0.00,VWS V14.00,2013-06-22 11:41:00,
2013-06-22 06:42:00,72.9,68.1,29.88,SW,225,1.0,0.0,85,0.00,,---,0.00,VWS V14.00,2013-06-22 11:42:00,
2013-06-22 06:43:00,72.9,68.1,29.88,SW,225,1.0,0.0,85,0.00,,---,0.00,VWS V14.00,2013-06-22 11:43:00,
2013-06-22 06:44:00,72.9,68.1,29.88,SE,135,3.0,3.0,85,0.00,,---,0.00,VWS V14.00,2013-06-22 11:44:00,
2013-06-22 06:45:00,72.9,68.1,29.88,SE,135,3.0,3.0,85,0.00,,---,0.00,VWS V14.00,2013-06-22 11:45:00,
2013-06-22 06:46:00,73.0,67.9,29.88,SE,135,2.4,2.4,84,0.00,,---,0.00,VWS V14.00,2013-06-22 11:46:00,
2013-06-22 06:47:00,73.0,67.9,29.88,SE,135,2.7,2.7,84,0.00,,---,0.00,VWS V14.00,2013-06-22 11:47:00,
2013-06-22 06:48:00,73.2,68.1,29.88,SE,135,2.4,2.4,84,0.00,,---,0.00,VWS V14.00,2013-06-22 11:48:00,
2013-06-22 06:49:00,73.2,68.1,29.88,SE,135,1.0,1.1,84,0.00,,---,0.00,VWS V14.00,2013-06-22 11:49:00,
2013-06-22 06:50:00,73.4,68.3,29.88,SE,135,2.4,2.4,84,0.00,,---,0.00,VWS V14.00,2013-06-22 11:50:00,
2013-06-22 06:51:00,73.4,68.3,29.88,SE,135,2.4,2.4,84,0.00,,---,0.00,VWS V14.00,2013-06-22 11:51:00,
2013-06-22 06:52:00,73.4,68.3,29.88,SE,135,1.0,1.1,84,0.00,,---,0.00,VWS V14.00,2013-06-22 11:52:00,
2013-06-22 06:53:00,73.6,68.4,29.88,SE,135,2.1,2.1,84,0.00,,---,0.00,VWS V14.00,2013-06-22 11:53:00,
2013-06-22 06:54:00,73.6,68.4,29.88,SE,135,2.1,2.1,84,0.00,,---,0.00,VWS V14.00,2013-06-22 11:54:00,
2013-06-22 06:55:00,73.6,68.4,29.88,SE,135,3.5,3.5,84,0.00,,---,0.00,VWS V14.00,2013-06-22 11:55:00,
2013-06-22 06:56:00,73.8,68.6,29.88,SE,135,3.5,3.5,84,0.00,,---,0.00,VWS V14.00,2013-06-22 11:56:00,
2013-06-22 06:57:00,73.8,68.6,29.88,SE,135,3.8,3.8,84,0.00,,---,0.00,VWS V14.00,2013-06-22 11:57:00,
2013-06-22 06:58:00,73.8,68.6,29.88,SSE,158,3.8,3.8,84,0.00,,---,0.00,VWS V14.00,2013-06-22 11:58:00,
2013-06-22 06:59:00,73.9,68.8,29.88,SE,135,3.8,3.8,84,0.00,,---,0.00,VWS V14.00,2013-06-22 11:59:00,
2013-06-22 07:00:00,73.9,68.8,29.88,SE,135,4.1,4.1,84,0.00,,---,0.00,VWS V14.00,2013-06-22 12:00:00,
2013-06-22 07:01:00,73.9,68.8,29.88,SSE,158,4.4,4.4,84,0.00,,---,0.00,VWS V14.00,2013-06-22 12:01:00,
2013-06-22 07:02:00,74.1,69.0,29.88,SE,135,4.4,4.4,84,0.00,,---,0.00,VWS V14.00,2013-06-22 12:02:00,
2013-06-22 07:03:00,74.1,69.0,29.88,SE,135,2.7,2.7,84,0.00,,---,0.00,VWS V14.00,2013-06-22 12:03:00,
2013-06-22 07:04:00,74.1,69.0,29.88,SE,135,2.7,2.7,84,0.00,,---,0.00,VWS V14.00,2013-06-22 12:04:00,
2013-06-22 07:05:00,74.1,69.0,29.88,SE,135,4.1,4.1,84,0.00,,---,0.00,VWS V14.00,2013-06-22 12:05:00,
2013-06-22 07:06:00,74.3,69.2,29.88,SE,135,4.1,4.1,84,0.00,,---,0.00,VWS V14.00,2013-06-22 12:06:00,
2013-06-22 07:08:00,74.3,69.2,29.88,SE,135,3.0,3.0,84,0.00,,---,0.00,VWS V14.00,2013-06-22 12:08:00,
2013-06-22 07:09:00,74.5,69.3,29.88,SSE,158,4.4,4.4,84,0.00,,---,0.00,VWS V14.00,2013-06-22 12:09:00,
2013-06-22 07:10:00,74.7,69.5,29.88,SSE,158,4.6,4.6,84,0.00,,---,0.00,VWS V14.00,2013-06-22 12:10:00,
2013-06-22 07:11:00,74.7,69.5,29.88,South,180,2.7,2.9,84,0.00,,---,0.00,VWS V14.00,2013-06-22 12:11:00,
2013-06-22 07:12:00,74.7,69.5,29.88,SSW,202,4.1,4.1,84,0.00,,---,0.00,VWS V14.00,2013-06-22 12:12:00,
2013-06-22 07:13:00,74.7,69.5,29.88,SE,135,4.1,4.1,84,0.00,,---,0.00,VWS V14.00,2013-06-22 12:13:00,
2013-06-22 07:14:00,74.8,69.7,29.88,SE,135,3.0,3.0,84,0.00,,---,0.00,VWS V14.00,2013-06-22 12:14:00,
2013-06-22 07:15:00,74.8,69.7,29.88,ESE,112,3.5,3.5,84,0.00,,---,0.00,VWS V14.00,2013-06-22 12:15:00,
2013-06-22 07:16:00,75.0,69.5,29.88,SE,135,4.1,4.1,83,0.00,,---,0.00,VWS V14.00,2013-06-22 12:16:00,
2013-06-22 07:17:00,75.0,69.5,29.88,South,180,3.8,3.8,83,0.00,,---,0.00,VWS V14.00,2013-06-22 12:17:00,
2013-06-22 07:18:00,75.0,69.5,29.88,SE,135,6.0,6.0,83,0.00,,---,0.00,VWS V14.00,2013-06-22 12:18:00,
2013-06-22 07:19:00,75.0,69.5,29.88,SSW,202,4.4,5.6,83,0.00,,---,0.00,VWS V14.00,2013-06-22 12:19:00,
2013-06-22 07:20:00,75.2,69.7,29.88,South,180,5.5,5.5,83,0.00,,---,0.00,VWS V14.00,2013-06-22 12:20:00,
2013-06-22 07:21:00,75.2,69.7,29.88,South,180,5.5,5.5,83,0.00,,---,0.00,VWS V14.00,2013-06-22 12:21:00,
2013-06-22 07:22:00,75.2,69.7,29.88,SW,225,4.6,4.6,83,0.00,,---,0.00,VWS V14.00,2013-06-22 12:22:00,
2013-06-22 07:23:00,75.2,69.7,29.88,SW,225,4.6,4.6,83,0.00,,---,0.00,VWS V14.00,2013-06-22 12:23:00,
2013-06-22 07:24:00,75.4,69.9,29.88,SE,135,3.0,3.0,83,0.00,,---,0.00,VWS V14.00,2013-06-22 12:24:00,
2013-06-22 07:25:00,75.4,69.9,29.88,SE,135,2.4,2.9,83,0.00,,---,0.00,VWS V14.00,2013-06-22 12:25:00,
2013-06-22 07:26:00,75.4,69.5,29.88,SSE,158,3.5,3.6,82,0.00,,---,0.00,VWS V14.00,2013-06-22 12:26:00,
2013-06-22 07:27:00,75.4,69.5,29.88,SSE,158,4.6,4.6,82,0.00,,---,0.00,VWS V14.00,2013-06-22 12:27:00,
2013-06-22 07:28:00,75.6,69.7,29.88,SE,135,4.9,4.9,82,0.00,,---,0.00,VWS V14.00,2013-06-22 12:28:00,
2013-06-22 07:29:00,75.6,69.7,29.88,SSW,202,5.5,5.5,82,0.00,,---,0.00,VWS V14.00,2013-06-22 12:29:00,
2013-06-22 07:30:00,75.7,69.9,29.88,South,180,4.6,4.6,82,0.00,,---,0.00,VWS V14.00,2013-06-22 12:30:00,
2013-06-22 07:31:00,75.7,69.9,29.88,SE,135,4.9,4.9,82,0.00,,---,0.00,VWS V14.00,2013-06-22 12:31:00,
2013-06-22 07:32:00,75.9,70.0,29.91,SSW,202,6.3,6.3,82,0.00,,---,0.00,VWS V14.00,2013-06-22 12:32:00,
2013-06-22 07:33:00,75.9,70.0,29.91,SSW,202,3.5,4.3,82,0.00,,---,0.00,VWS V14.00,2013-06-22 12:33:00,
2013-06-22 07:34:00,76.1,70.2,29.91,SSE,158,4.1,4.1,82,0.00,,---,0.00,VWS V14.00,2013-06-22 12:34:00,
2013-06-22 07:35:00,76.1,70.2,29.91,SSW,202,4.4,4.4,82,0.00,,---,0.00,VWS V14.00,2013-06-22 12:35:00,
2013-06-22 07:36:00,76.1,70.2,29.91,South,180,5.2,5.2,82,0.00,,---,0.00,VWS V14.00,2013-06-22 12:36:00,
2013-06-22 07:37:00,76.3,70.4,29.91,South,180,5.2,5.2,82,0.00,,---,0.00,VWS V14.00,2013-06-22 12:37:00,
2013-06-22 07:38:00,76.3,70.4,29.91,SE,135,7.2,7.2,82,0.00,,---,0.00,VWS V14.00,2013-06-22 12:38:00,
2013-06-22 07:39:00,76.5,70.2,29.91,South,180,4.4,5.6,81,0.00,,---,0.00,VWS V14.00,2013-06-22 12:39:00,
2013-06-22 07:41:00,76.6,70.4,29.91,South,180,4.6,4.6,81,0.00,,---,0.00,VWS V14.00,2013-06-22 12:41:00,
2013-06-22 07:42:00,76.6,70.4,29.91,South,180,4.6,4.6,81,0.00,,---,0.00,VWS V14.00,2013-06-22 12:42:00,
2013-06-22 07:43:00,76.6,70.4,29.91,SSW,202,5.2,5.2,81,0.00,,---,0.00,VWS V14.00,2013-06-22 12:43:00,
2013-06-22 07:44:00,76.6,70.4,29.91,SE,135,3.8,3.8,81,0.00,,---,0.00,VWS V14.00,2013-06-22 12:44:00,
2013-06-22 07:45:00,76.8,70.2,29.91,SE,135,4.1,4.1,80,0.00,,---,0.00,VWS V14.00,2013-06-22 12:45:00,
2013-06-22 07:46:00,77.0,70.4,29.91,SW,225,3.5,4.3,80,0.00,,---,0.00,VWS V14.00,2013-06-22 12:46:00,
2013-06-22 07:47:00,77.0,70.4,29.91,SW,225,3.5,4.3,80,0.00,,---,0.00,VWS V14.00,2013-06-22 12:47:00,
2013-06-22 07:48:00,77.0,70.4,29.91,SW,225,3.5,3.5,80,0.00,,---,0.00,VWS V14.00,2013-06-22 12:48:00,
2013-06-22 07:49:00,77.0,70.4,29.91,SE,135,7.2,7.2,80,0.00,,---,0.00,VWS V14.00,2013-06-22 12:49:00,
2013-06-22 07:50:00,77.2,70.5,29.91,SE,135,9.1,9.1,80,0.00,,---,0.00,VWS V14.00,2013-06-22 12:50:00,
2013-06-22 07:51:00,77.2,70.2,29.91,SW,225,5.2,6.5,79,0.00,,---,0.00,VWS V14.00,2013-06-22 12:51:00,
2013-06-22 07:52:00,77.2,70.2,29.91,SE,135,10.0,10.0,79,0.00,,---,0.00,VWS V14.00,2013-06-22 12:52:00,
2013-06-22 07:53:00,77.2,70.2,29.91,South,180,6.0,7.4,79,0.00,,---,0.00,VWS V14.00,2013-06-22 12:53:00,
2013-06-22 07:54:00,77.2,70.2,29.91,South,180,6.0,6.0,79,0.00,,---,0.00,VWS V14.00,2013-06-22 12:54:00,
2013-06-22 07:55:00,77.4,70.3,29.91,South,180,7.2,7.2,79,0.00,,---,0.00,VWS V14.00,2013-06-22 12:55:00,
2013-06-22 07:56:00,77.5,70.5,29.91,WSW,248,4.9,5.4,79,0.00,,---,0.00,VWS V14.00,2013-06-22 12:56:00,
2013-06-22 07:57:00,77.5,70.5,29.91,SSW,202,8.3,8.3,79,0.00,,---,0.00,VWS V14.00,2013-06-22 12:57:00,
2013-06-22 07:58:00,77.5,70.5,29.91,SW,225,5.8,5.8,79,0.00,,---,0.00,VWS V14.00,2013-06-22 12:58:00,
2013-06-22 07:59:00,77.7,70.3,29.91,SSW,202,4.9,4.9,78,0.00,,---,0.00,VWS V14.00,2013-06-22 12:59:00,
2013-06-22 08:00:00,77.7,70.3,29.91,SSE,158,7.7,7.7,78,0.00,,---,0.00,VWS V14.00,2013-06-22 13:00:00,
2013-06-22 08:01:00,77.7,70.3,29.91,SW,225,6.3,6.3,78,0.00,,---,0.00,VWS V14.00,2013-06-22 13:01:00,
2013-06-22 08:02:00,77.9,70.5,29.91,SSW,202,6.3,6.3,78,0.00,,---,0.00,VWS V14.00,2013-06-22 13:02:00,
2013-06-22 08:03:00,77.9,70.5,29.91,SSW,202,6.3,6.3,78,0.00,,---,0.00,VWS V14.00,2013-06-22 13:03:00,
2013-06-22 08:04:00,78.1,70.7,29.91,SE,135,5.2,5.2,78,0.00,,---,0.00,VWS V14.00,2013-06-22 13:04:00,
2013-06-22 08:05:00,78.1,70.7,29.91,SW,225,3.0,5.6,78,0.00,,---,0.00,VWS V14.00,2013-06-22 13:05:00,
2013-06-22 08:06:00,78.1,70.7,29.91,SW,225,4.1,5.6,78,0.00,,---,0.00,VWS V14.00,2013-06-22 13:06:00,
2013-06-22 08:07:00,78.3,70.8,29.91,SSE,158,4.9,4.9,78,0.00,,---,0.00,VWS V14.00,2013-06-22 13:07:00,
2013-06-22 08:08:00,78.3,70.8,29.91,SSE,158,7.7,7.7,78,0.00,,---,0.00,VWS V14.00,2013-06-22 13:08:00,
2013-06-22 08:09:00,78.3,70.8,29.91,SSE,158,4.9,5.4,78,0.00,,---,0.00,VWS V14.00,2013-06-22 13:09:00,
2013-06-22 08:10:00,78.3,70.5,29.91,SSE,158,5.5,5.5,77,0.00,,---,0.00,VWS V14.00,2013-06-22 13:10:00,
2013-06-22 08:11:00,78.3,70.5,29.91,South,180,4.9,4.9,77,0.00,,---,0.00,VWS V14.00,2013-06-22 13:11:00,
2013-06-22 08:12:00,78.3,70.5,29.91,SE,135,6.3,6.3,77,0.00,,---,0.00,VWS V14.00,2013-06-22 13:12:00,
2013-06-22 08:13:00,78.4,70.2,29.91,SSW,202,4.4,4.9,76,0.00,,---,0.00,VWS V14.00,2013-06-22 13:13:00,
2013-06-22 08:14:00,78.4,70.2,29.91,SSE,158,5.8,5.8,76,0.00,,---,0.00,VWS V14.00,2013-06-22 13:14:00,
2013-06-22 08:15:00,78.4,70.6,29.91,WSW,248,4.4,4.4,77,0.00,,---,0.00,VWS V14.00,2013-06-22 13:15:00,
2013-06-22 08:16:00,78.4,70.6,29.91,SSE,158,5.2,5.8,77,0.00,,---,0.00,VWS V14.00,2013-06-22 13:16:00,
2013-06-22 08:17:00,78.6,70.8,29.91,SSE,158,7.2,7.2,77,0.00,,---,0.00,VWS V14.00,2013-06-22 13:17:00,
2013-06-22 08:18:00,78.6,70.4,29.91,SSW,202,4.4,6.0,76,0.00,,---,0.00,VWS V14.00,2013-06-22 13:18:00,
2013-06-22 08:19:00,78.6,70.4,29.91,South,180,5.2,5.2,76,0.00,,---,0.00,VWS V14.00,2013-06-22 13:19:00,
2013-06-22 08:20:00,78.6,70.4,29.91,South,180,8.8,8.8,76,0.00,,---,0.00,VWS V14.00,2013-06-22 13:20:00,
2013-06-22 08:21:00,78.8,70.6,29.91,SE,135,8.3,8.3,76,0.00,,---,0.00,VWS V14.00,2013-06-22 13:21:00,
2013-06-22 08:22:00,78.8,70.2,29.91,SSE,158,5.8,5.8,75,0.00,,---,0.00,VWS V14.00,2013-06-22 13:22:00,
2013-06-22 08:23:00,78.8,70.2,29.91,SSW,202,7.7,7.7,75,0.00,,---,0.00,VWS V14.00,2013-06-22 13:23:00,
2013-06-22 08:24:00,78.8,70.2,29.91,South,180,5.8,6.0,75,0.00,,---,0.00,VWS V14.00,2013-06-22 13:24:00,
2013-06-22 08:25:00,79.0,70.0,29.91,SW,225,5.8,6.9,74,0.00,,---,0.00,VWS V14.00,2013-06-22 13:25:00,
2013-06-22 08:26:00,79.0,70.0,29.91,SW,225,5.8,5.8,74,0.00,,---,0.00,VWS V14.00,2013-06-22 13:26:00,
2013-06-22 08:27:00,79.0,70.0,29.91,South,180,5.5,5.5,74,0.00,,---,0.00,VWS V14.00,2013-06-22 13:27:00,
2013-06-22 08:28:00,79.2,70.2,29.91,SSW,202,4.6,4.6,74,0.00,,---,0.00,VWS V14.00,2013-06-22 13:28:00,
2013-06-22 08:29:00,79.2,70.2,29.91,SSW,202,6.3,6.3,74,0.00,,---,0.00,VWS V14.00,2013-06-22 13:29:00,
2013-06-22 08:30:00,79.3,70.3,29.91,SSW,202,8.0,8.0,74,0.00,,---,0.00,VWS V14.00,2013-06-22 13:30:00,
2013-06-22 08:31:00,79.3,70.3,29.91,SSW,202,8.0,8.0,74,0.00,,---,0.00,VWS V14.00,2013-06-22 13:31:00,
2013-06-22 08:32:00,79.3,70.3,29.91,South,180,8.6,8.6,74,0.00,,---,0.00,VWS V14.00,2013-06-22 13:32:00,
2013-06-22 08:33:00,79.5,70.5,29.91,South,180,5.5,6.0,74,0.00,,---,0.00,VWS V14.00,2013-06-22 13:33:00,
2013-06-22 08:34:00,79.5,70.5,29.91,SW,225,5.2,5.4,74,0.00,,---,0.00,VWS V14.00,2013-06-22 13:34:00,
2013-06-22 08:35:00,79.5,70.5,29.91,SW,225,8.8,8.8,74,0.00,,---,0.00,VWS V14.00,2013-06-22 13:35:00,
2013-06-22 08:36:00,79.5,70.1,29.91,ESE,112,5.8,6.3,73,0.00,,---,0.00,VWS V14.00,2013-06-22 13:36:00,
2013-06-22 08:37:00,79.7,70.3,29.91,SW,225,4.4,4.4,73,0.00,,---,0.00,VWS V14.00,2013-06-22 13:37:00,
2013-06-22 08:38:00,79.7,70.3,29.91,SW,225,2.1,3.1,73,0.00,,---,0.00,VWS V14.00,2013-06-22 13:38:00,
2013-06-22 08:39:00,79.7,70.3,29.91,SW,225,4.6,5.8,73,0.00,,---,0.00,VWS V14.00,2013-06-22 13:39:00,
2013-06-22 08:40:00,79.9,70.9,29.91,SE,135,3.0,3.0,74,0.00,,---,0.00,VWS V14.00,2013-06-22 13:40:00,
2013-06-22 08:41:00,79.9,70.9,29.91,SSW,202,5.2,5.2,74,0.00,,---,0.00,VWS V14.00,2013-06-22 13:41:00,
2013-06-22 08:42:00,79.9,70.9,29.91,SSE,158,2.7,3.4,74,0.00,,---,0.00,VWS V14.00,2013-06-22 13:42:00,
2013-06-22 08:43:00,80.2,71.2,29.91,SSW,202,4.6,5.6,74,0.00,,---,0.00,VWS V14.00,2013-06-22 13:43:00,
2013-06-22 08:44:00,80.2,71.2,29.91,South,180,8.8,8.8,74,0.00,,---,0.00,VWS V14.00,2013-06-22 13:44:00,
2013-06-22 08:45:00,80.2,71.2,29.91,SE,135,8.6,8.6,74,0.00,,---,0.00,VWS V14.00,2013-06-22 13:45:00,
2013-06-22 08:46:00,80.4,71.0,29.91,South,180,7.2,7.2,73,0.00,,---,0.00,VWS V14.00,2013-06-22 13:46:00,
2013-06-22 08:47:00,80.4,71.0,29.91,SSW,202,8.8,8.8,73,0.00,,---,0.00,VWS V14.00,2013-06-22 13:47:00,
2013-06-22 08:48:00,80.6,71.2,29.91,SE,135,6.3,6.3,73,0.00,,---,0.00,VWS V14.00,2013-06-22 13:48:00,
2013-06-22 08:49:00,80.6,71.2,29.91,South,180,7.7,7.7,73,0.00,,---,0.00,VWS V14.00,2013-06-22 13:49:00,
2013-06-22 08:50:00,80.6,70.8,29.91,SSE,158,7.7,7.7,72,0.00,,---,0.00,VWS V14.00,2013-06-22 13:50:00,
2013-06-22 08:51:00,80.8,70.9,29.91,SE,135,5.2,5.8,72,0.00,,---,0.00,VWS V14.00,2013-06-22 13:51:00,
2013-06-22 08:52:00,81.0,71.1,29.91,South,180,8.0,8.0,72,0.00,,---,0.00,VWS V14.00,2013-06-22 13:52:00,
2013-06-22 08:53:00,81.0,71.1,29.91,South,180,8.0,8.0,72,0.00,,---,0.00,VWS V14.00,2013-06-22 13:53:00,
2013-06-22 08:54:00,81.0,70.7,29.91,South,180,8.8,8.8,71,0.00,,---,0.00,VWS V14.00,2013-06-22 13:54:00,
2013-06-22 08:55:00,81.1,70.8,29.91,SE,135,5.5,6.3,71,0.00,,---,0.00,VWS V14.00,2013-06-22 13:55:00,
2013-06-22 08:56:00,81.1,70.8,29.91,SSE,158,5.8,5.8,71,0.00,,---,0.00,VWS V14.00,2013-06-22 13:56:00,
2013-06-22 08:58:00,81.1,70.8,29.91,SSE,158,8.6,8.6,71,0.00,,---,0.00,VWS V14.00,2013-06-22 13:58:00,
2013-06-22 08:59:00,81.1,70.8,29.91,SSW,202,4.9,6.0,71,0.00,,---,0.00,VWS V14.00,2013-06-22 13:59:00,
2013-06-22 09:00:00,81.3,71.0,29.91,SE,135,5.2,5.2,71,0.00,,---,0.00,VWS V14.00,2013-06-22 14:00:00,
2013-06-22 09:01:00,81.3,70.6,29.91,South,180,6.0,6.0,70,0.00,,---,0.00,VWS V14.00,2013-06-22 14:01:00,
2013-06-22 09:02:00,81.3,70.6,29.91,SSE,158,7.2,7.2,70,0.00,,---,0.00,VWS V14.00,2013-06-22 14:02:00,
2013-06-22 09:03:00,81.3,70.6,29.91,South,180,5.5,5.5,70,0.00,,---,0.00,VWS V14.00,2013-06-22 14:03:00,
2013-06-22 09:04:00,81.3,70.2,29.91,South,180,6.9,6.9,69,0.00,,---,0.00,VWS V14.00,2013-06-22 14:04:00,
2013-06-22 09:05:00,81.3,70.2,29.91,South,180,4.6,5.8,69,0.00,,---,0.00,VWS V14.00,2013-06-22 14:05:00,
2013-06-22 09:06:00,81.5,70.4,29.91,South,180,8.3,8.3,69,0.00,,---,0.00,VWS V14.00,2013-06-22 14:06:00,
2013-06-22 09:07:00,81.5,70.8,29.91,SSE,158,5.2,7.8,70,0.00,,---,0.00,VWS V14.00,2013-06-22 14:07:00,
2013-06-22 09:08:00,81.5,70.8,29.91,SW,225,4.9,6.3,70,0.00,,---,0.00,VWS V14.00,2013-06-22 14:08:00,
2013-06-22 09:09:00,81.5,70.8,29.91,South,180,4.9,6.5,70,0.00,,---,0.00,VWS V14.00,2013-06-22 14:09:00,
2013-06-22 09:10:00,81.7,70.5,29.91,South,180,7.7,7.7,69,0.00,,---,0.00,VWS V14.00,2013-06-22 14:10:00,
2013-06-22 09:11:00,81.9,70.7,29.91,SSW,202,5.2,6.5,69,0.00,,---,0.00,VWS V14.00,2013-06-22 14:11:00,
2013-06-22 09:12:00,81.9,70.7,29.91,SSW,202,5.2,5.2,69,0.00,,---,0.00,VWS V14.00,2013-06-22 14:12:00,
2013-06-22 09:13:00,81.9,70.7,29.91,SSE,158,4.4,5.4,69,0.00,,---,0.00,VWS V14.00,2013-06-22 14:13:00,
2013-06-22 09:14:00,81.9,70.7,29.91,South,180,6.3,6.3,69,0.00,,---,0.00,VWS V14.00,2013-06-22 14:14:00,
2013-06-22 09:15:00,82.0,70.9,29.91,SW,225,4.4,5.4,69,0.00,,---,0.00,VWS V14.00,2013-06-22 14:15:00,
2013-06-22 09:16:00,82.0,70.9,29.91,SE,135,5.5,5.6,69,0.00,,---,0.00,VWS V14.00,2013-06-22 14:16:00,
2013-06-22 09:17:00,82.0,70.9,29.91,SW,225,6.3,6.3,69,0.00,,---,0.00,VWS V14.00,2013-06-22 14:17:00,
2013-06-22 09:18:00,82.0,70.4,29.91,SSW,202,6.0,6.0,68,0.00,,---,0.00,VWS V14.00,2013-06-22 14:18:00,
2013-06-22 09:19:00,82.2,70.6,29.91,South,180,5.5,5.8,68,0.00,,---,0.00,VWS V14.00,2013-06-22 14:19:00,
2013-06-22 09:20:00,82.2,70.6,29.91,SW,225,5.2,5.2,68,0.00,,---,0.00,VWS V14.00,2013-06-22 14:20:00,
2013-06-22 09:21:00,82.2,70.6,29.91,South,180,4.9,5.6,68,0.00,,---,0.00,VWS V14.00,2013-06-22 14:21:00,
2013-06-22 09:22:00,82.4,70.8,29.91,South,180,4.6,4.6,68,0.00,,---,0.00,VWS V14.00,2013-06-22 14:22:00,
2013-06-22 09:23:00,82.4,70.8,29.91,SW,225,4.9,4.9,68,0.00,,---,0.00,VWS V14.00,2013-06-22 14:23:00,
2013-06-22 09:24:00,82.4,70.8,29.91,SSE,158,4.4,4.4,68,0.00,,---,0.00,VWS V14.00,2013-06-22 14:24:00,
2013-06-22 09:25:00,82.6,71.0,29.91,South,180,5.5,5.5,68,0.00,,---,0.00,VWS V14.00,2013-06-22 14:25:00,
2013-06-22 09:26:00,82.6,71.0,29.91,South,180,5.5,5.5,68,0.00,,---,0.00,VWS V14.00,2013-06-22 14:26:00,
2013-06-22 09:27:00,82.8,71.1,29.91,South,180,5.2,5.2,68,0.00,,---,0.00,VWS V14.00,2013-06-22 14:27:00,
2013-06-22 09:28:00,82.8,70.7,29.91,South,180,5.2,5.2,67,0.00,,---,0.00,VWS V14.00,2013-06-22 14:28:00,
2013-06-22 09:29:00,82.9,71.3,29.91,South,180,5.5,6.7,68,0.00,,---,0.00,VWS V14.00,2013-06-22 14:29:00,
2013-06-22 09:30:00,82.9,70.9,29.91,South,180,5.2,5.2,67,0.00,,---,0.00,VWS V14.00,2013-06-22 14:30:00,
2013-06-22 09:31:00,82.9,70.9,29.91,SE,135,8.3,8.3,67,0.00,,---,0.00,VWS V14.00,2013-06-22 14:31:00,
2013-06-22 09:32:00,83.1,71.0,29.91,SSE,158,6.3,6.3,67,0.00,,---,0.00,VWS V14.00,2013-06-22 14:32:00,
2013-06-22 09:33:00,83.1,71.0,29.91,SSW,202,6.0,6.0,67,0.00,,---,0.00,VWS V14.00,2013-06-22 14:33:00,
2013-06-22 09:34:00,83.3,71.2,29.91,South,180,5.5,7.6,67,0.00,,---,0.00,VWS V14.00,2013-06-22 14:34:00,
2013-06-22 09:35:00,83.5,71.4,29.91,SW,225,6.9,6.9,67,0.00,,---,0.00,VWS V14.00,2013-06-22 14:35:00,
2013-06-22 09:36:00,83.5,71.4,29.91,SW,225,6.9,6.9,67,0.00,,---,0.00,VWS V14.00,2013-06-22 14:36:00,
2013-06-22 09:37:00,83.5,71.4,29.91,South,180,6.3,6.3,67,0.00,,---,0.00,VWS V14.00,2013-06-22 14:37:00,
2013-06-22 09:38:00,83.5,70.9,29.91,SSE,158,7.2,7.2,66,0.00,,---,0.00,VWS V14.00,2013-06-22 14:38:00,
2013-06-22 09:39:00,83.7,71.1,29.91,SSW,202,8.6,8.6,66,0.00,,---,0.00,VWS V14.00,2013-06-22 14:39:00,
2013-06-22 09:40:00,83.7,70.7,29.91,SSW,202,7.2,7.2,65,0.00,,---,0.00,VWS V14.00,2013-06-22 14:40:00,
2013-06-22 09:41:00,83.7,70.7,29.91,SSW,202,7.2,7.2,65,0.00,,---,0.00,VWS V14.00,2013-06-22 14:41:00,
2013-06-22 09:42:00,83.7,70.7,29.91,South,180,6.3,6.3,65,0.00,,---,0.00,VWS V14.00,2013-06-22 14:42:00,
2013-06-22 09:44:00,83.7,70.2,29.91,South,180,10.5,10.5,64,0.00,,---,0.00,VWS V14.00,2013-06-22 14:44:00,
2013-06-22 09:45:00,83.5,69.6,29.91,SSE,158,9.1,9.1,63,0.00,,---,0.00,VWS V14.00,2013-06-22 14:45:00,
2013-06-22 09:46:00,83.7,70.2,29.91,SW,225,6.0,6.5,64,0.00,,---,0.00,VWS V14.00,2013-06-22 14:46:00,
2013-06-22 09:47:00,83.7,69.7,29.91,South,180,5.8,5.8,63,0.00,,---,0.00,VWS V14.00,2013-06-22 14:47:00,
2013-06-22 09:48:00,83.7,69.7,29.91,SSW,202,14.1,14.1,63,0.00,,---,0.00,VWS V14.00,2013-06-22 14:48:00,
2013-06-22 09:49:00,83.7,69.7,29.91,SSW,202,8.8,10.5,63,0.00,,---,0.00,VWS V14.00,2013-06-22 14:49:00,
2013-06-22 09:50:00,83.7,69.7,29.91,SE,135,8.6,8.6,63,0.00,,---,0.00,VWS V14.00,2013-06-22 14:50:00,
2013-06-22 09:51:00,83.7,69.7,29.91,SSW,202,8.3,8.5,63,0.00,,---,0.00,VWS V14.00,2013-06-22 14:51:00,
2013-06-22 09:52:00,83.7,69.7,29.91,SSE,158,8.0,8.0,63,0.00,,---,0.00,VWS V14.00,2013-06-22 14:52:00,
2013-06-22 09:53:00,83.8,69.9,29.91,SSE,158,11.6,11.6,63,0.00,,---,0.00,VWS V14.00,2013-06-22 14:53:00,
2013-06-22 09:54:00,83.8,69.9,29.91,WSW,248,5.2,8.5,63,0.00,,---,0.00,VWS V14.00,2013-06-22 14:54:00,
2013-06-22 09:55:00,83.8,69.9,29.91,SSW,202,6.3,6.3,63,0.00,,---,0.00,VWS V14.00,2013-06-22 14:55:00,
2013-06-22 09:56:00,84.0,70.1,29.91,South,180,5.8,8.1,63,0.00,,---,0.00,VWS V14.00,2013-06-22 14:56:00,
2013-06-22 09:57:00,84.0,70.1,29.91,SE,135,9.1,9.1,63,0.00,,---,0.00,VWS V14.00,2013-06-22 14:57:00,
2013-06-22 09:58:00,84.0,70.1,29.91,SE,135,8.0,8.1,63,0.00,,---,0.00,VWS V14.00,2013-06-22 14:58:00,
2013-06-22 09:59:00,84.2,69.8,29.91,SW,225,7.2,8.7,62,0.00,,---,0.00,VWS V14.00,2013-06-22 14:59:00,
2013-06-22 10:00:00,84.2,69.8,29.91,SSE,158,11.9,11.9,62,0.00,,---,0.00,VWS V14.00,2013-06-22 15:00:00,
2013-06-22 10:01:00,84.2,69.8,29.91,SE,135,4.9,10.5,62,0.00,,---,0.00,VWS V14.00,2013-06-22 15:01:00,
2013-06-22 10:02:00,84.2,69.8,29.91,SE,135,5.5,5.5,62,0.00,,---,0.00,VWS V14.00,2013-06-22 15:02:00,
2013-06-22 10:03:00,84.4,69.9,29.91,SW,225,7.2,7.2,62,0.00,,---,0.00,VWS V14.00,2013-06-22 15:03:00,
2013-06-22 10:04:00,84.4,69.9,29.91,SE,135,7.7,7.7,62,0.00,,---,0.00,VWS V14.00,2013-06-22 15:04:00,
2013-06-22 10:05:00,84.6,70.6,29.91,SSE,158,9.1,9.1,63,0.00,,---,0.00,VWS V14.00,2013-06-22 15:05:00,
2013-06-22 10:06:00,84.6,70.1,29.91,SE,135,10.5,12.1,62,0.00,,---,0.00,VWS V14.00,2013-06-22 15:06:00,
2013-06-22 10:07:00,84.6,70.1,29.91,SSE,158,11.1,11.1,62,0.00,,---,0.00,VWS V14.00,2013-06-22 15:07:00,
2013-06-22 10:08:00,84.6,70.1,29.91,SSE,158,7.2,8.1,62,0.00,,---,0.00,VWS V14.00,2013-06-22 15:08:00,
2013-06-22 10:09:00,84.7,70.3,29.91,SW,225,8.3,8.5,62,0.00,,---,0.00,VWS V14.00,2013-06-22 15:09:00,
2013-06-22 10:10:00,84.7,70.3,29.91,SE,135,5.5,5.8,62,0.00,,---,0.00,VWS V14.00,2013-06-22 15:10:00,
2013-06-22 10:11:00,84.9,70.5,29.91,SSE,158,9.1,9.1,62,0.00,,---,0.00,VWS V14.00,2013-06-22 15:11:00,
2013-06-22 10:12:00,85.1,70.6,29.91,South,180,8.3,8.3,62,0.00,,---,0.00,VWS V14.00,2013-06-22 15:12:00,
2013-06-22 10:13:00,85.1,70.6,29.91,South,180,6.3,7.4,62,0.00,,---,0.00,VWS V14.00,2013-06-22 15:13:00,
2013-06-22 10:14:00,85.1,70.6,29.91,WSW,248,3.5,6.9,62,0.00,,---,0.00,VWS V14.00,2013-06-22 15:14:00,
2013-06-22 10:15:00,85.3,70.8,29.91,South,180,8.3,8.3,62,0.00,,---,0.00,VWS V14.00,2013-06-22 15:15:00,
2013-06-22 10:16:00,85.3,70.8,29.91,South,180,8.3,8.3,62,0.00,,---,0.00,VWS V14.00,2013-06-22 15:16:00,
2013-06-22 10:17:00,85.3,70.8,29.91,WSW,248,6.3,6.3,62,0.00,,---,0.00,VWS V14.00,2013-06-22 15:17:00,
2013-06-22 10:18:00,85.5,71.0,29.91,WSW,248,5.8,5.8,62,0.00,,---,0.00,VWS V14.00,2013-06-22 15:18:00,
2013-06-22 10:19:00,85.6,71.1,29.91,WSW,248,10.8,10.8,62,0.00,,---,0.00,VWS V14.00,2013-06-22 15:19:00,
2013-06-22 10:20:00,85.6,70.7,29.91,SE,135,10.2,10.2,61,0.00,,---,0.00,VWS V14.00,2013-06-22 15:20:00,
2013-06-22 10:21:00,85.6,70.2,29.91,SSE,158,11.1,11.1,60,0.00,,---,0.00,VWS V14.00,2013-06-22 15:21:00,
2013-06-22 10:22:00,85.6,70.2,29.91,South,180,5.5,8.1,60,0.00,,---,0.00,VWS V14.00,2013-06-22 15:22:00,
2013-06-22 10:23:00,85.6,69.7,29.91,SW,225,6.3,6.3,59,0.00,,---,0.00,VWS V14.00,2013-06-22 15:23:00,
2013-06-22 10:24:00,85.6,69.7,29.91,SSE,158,6.3,7.2,59,0.00,,---,0.00,VWS V14.00,2013-06-22 15:24:00,
2013-06-22 10:25:00,85.6,69.7,29.91,SW,225,17.5,17.5,59,0.00,,---,0.00,VWS V14.00,2013-06-22 15:25:00,
2013-06-22 10:26:00,85.6,69.7,29.91,SW,225,8.6,13.2,59,0.00,,---,0.00,VWS V14.00,2013-06-22 15:26:00,
2013-06-22 10:27:00,85.6,69.2,29.91,SE,135,6.3,7.6,58,0.00,,---,0.00,VWS V14.00,2013-06-22 15:27:00,
2013-06-22 10:28:00,85.6,69.7,29.91,SW,225,4.9,4.9,59,0.00,,---,0.00,VWS V14.00,2013-06-22 15:28:00,
2013-06-22 10:29:00,85.8,69.3,29.91,SW,225,7.2,7.2,58,0.00,,---,0.00,VWS V14.00,2013-06-22 15:29:00,
2013-06-22 10:30:00,85.8,69.3,29.91,SW,225,7.2,7.2,58,0.00,,---,0.00,VWS V14.00,2013-06-22 15:30:00,
2013-06-22 10:31:00,85.8,69.3,29.91,SW,225,8.0,8.1,58,0.00,,---,0.00,VWS V14.00,2013-06-22 15:31:00,
2013-06-22 10:32:00,85.8,68.8,29.91,SSW,202,8.6,8.6,57,0.00,,---,0.00,VWS V14.00,2013-06-22 15:32:00,
2013-06-22 10:33:00,85.8,68.8,29.91,SSE,158,5.5,6.0,57,0.00,,---,0.00,VWS V14.00,2013-06-22 15:33:00,
2013-06-22 10:34:00,85.8,68.8,29.91,SW,225,4.4,5.8,57,0.00,,---,0.00,VWS V14.00,2013-06-22 15:34:00,
2013-06-22 10:35:00,85.8,69.3,29.91,South,180,5.8,6.0,58,0.00,,---,0.00,VWS V14.00,2013-06-22 15:35:00,
2013-06-22 10:36:00,85.8,69.3,29.91,South,180,7.2,7.2,58,0.00,,---,0.00,VWS V14.00,2013-06-22 15:36:00,
2013-06-22 10:37:00,86.0,69.5,29.91,SW,225,5.8,6.0,58,0.00,,---,0.00,VWS V14.00,2013-06-22 15:37:00,
2013-06-22 10:38:00,86.0,69.5,29.91,SSW,202,5.2,5.8,58,0.00,,---,0.00,VWS V14.00,2013-06-22 15:38:00,
2013-06-22 10:39:00,86.0,69.0,29.91,South,180,8.0,8.5,57,0.00,,---,0.00,VWS V14.00,2013-06-22 15:39:00,
2013-06-22 10:40:00,86.2,69.2,29.91,WSW,248,9.1,9.1,57,0.00,,---,0.00,VWS V14.00,2013-06-22 15:40:00,
2013-06-22 10:41:00,86.2,69.2,29.91,WSW,248,9.1,9.1,57,0.00,,---,0.00,VWS V14.00,2013-06-22 15:41:00,
2013-06-22 10:42:00,86.2,69.2,29.91,South,180,6.3,6.5,57,0.00,,---,0.00,VWS V14.00,2013-06-22 15:42:00,
2013-06-22 10:43:00,86.2,69.2,29.91,SSW,202,6.0,7.2,57,0.00,,---,0.00,VWS V14.00,2013-06-22 15:43:00,
2013-06-22 10:44:00,86.4,69.3,29.91,West,270,7.7,8.1,57,0.00,,---,0.00,VWS V14.00,2013-06-22 15:44:00,
2013-06-22 10:45:00,86.4,69.3,29.91,SW,225,4.6,6.0,57,0.00,,---,0.00,VWS V14.00,2013-06-22 15:45:00,
2013-06-22 10:46:00,86.4,69.3,29.91,SW,225,4.6,4.6,57,0.00,,---,0.00,VWS V14.00,2013-06-22 15:46:00,
2013-06-22 10:47:00,86.4,69.3,29.91,SSE,158,4.9,5.8,57,0.00,,---,0.00,VWS V14.00,2013-06-22 15:47:00,
2013-06-22 10:48:00,86.5,69.0,29.91,West,270,5.5,5.8,56,0.00,,---,0.00,VWS V14.00,2013-06-22 15:48:00,
2013-06-22 10:49:00,86.5,69.0,29.91,SW,225,4.4,4.4,56,0.00,,---,0.00,VWS V14.00,2013-06-22 15:49:00,
2013-06-22 10:50:00,86.5,69.0,29.91,SW,225,5.8,5.8,56,0.00,,---,0.00,VWS V14.00,2013-06-22 15:50:00,
2013-06-22 10:51:00,86.7,69.7,29.91,South,180,10.0,10.0,57,0.00,,---,0.00,VWS V14.00,2013-06-22 15:51:00,
2013-06-22 10:52:00,86.7,69.7,29.91,SW,225,11.6,11.6,57,0.00,,---,0.00,VWS V14.00,2013-06-22 15:52:00,
2013-06-22 10:53:00,86.7,69.2,29.91,SSW,202,8.3,8.5,56,0.00,,---,0.00,VWS V14.00,2013-06-22 15:53:00,
2013-06-22 10:54:00,86.9,69.3,29.91,SSW,202,11.1,11.1,56,0.00,,---,0.00,VWS V14.00,2013-06-22 15:54:00,
2013-06-22 10:55:00,86.9,69.3,29.91,SE,135,11.6,11.6,56,0.00,,---,0.00,VWS V14.00,2013-06-22 15:55:00,
2013-06-22 10:56:00,87.1,69.5,29.91,SSW,202,10.5,10.5,56,0.00,,---,0.00,VWS V14.00,2013-06-22 15:56:00,
2013-06-22 10:57:00,87.1,69.5,29.91,SSE,158,10.5,10.5,56,0.00,,---,0.00,VWS V14.00,2013-06-22 15:57:00,
2013-06-22 10:58:00,87.1,69.5,29.91,SE,135,4.4,7.6,56,0.00,,---,0.00,VWS V14.00,2013-06-22 15:58:00,
2013-06-22 10:59:00,87.1,69.5,29.91,SSE,158,6.6,7.6,56,0.00,,---,0.00,VWS V14.00,2013-06-22 15:59:00,
2013-06-22 11:00:00,87.1,69.5,29.91,SE,135,8.6,8.6,56,0.00,,---,0.00,VWS V14.00,2013-06-22 16:00:00,
2013-06-22 11:01:00,87.3,69.7,29.91,South,180,8.3,8.3,56,0.00,,---,0.00,VWS V14.00,2013-06-22 16:01:00,
2013-06-22 11:02:00,87.3,69.7,29.91,SSW,202,5.8,5.8,56,0.00,,---,0.00,VWS V14.00,2013-06-22 16:02:00,
2013-06-22 11:03:00,87.3,69.7,29.91,South,180,5.2,9.8,56,0.00,,---,0.00,VWS V14.00,2013-06-22 16:03:00,
2013-06-22 11:04:00,87.3,69.7,29.91,SSW,202,8.3,8.3,56,0.00,,---,0.00,VWS V14.00,2013-06-22 16:04:00,
2013-06-22 11:05:00,87.4,69.3,29.91,South,180,7.7,7.7,55,0.00,,---,0.00,VWS V14.00,2013-06-22 16:05:00,
2013-06-22 11:06:00,87.4,69.3,29.91,SSE,158,7.2,7.2,55,0.00,,---,0.00,VWS V14.00,2013-06-22 16:06:00,
2013-06-22 11:07:00,87.4,69.3,29.91,SSW,202,7.2,7.2,55,0.00,,---,0.00,VWS V14.00,2013-06-22 16:07:00,
2013-06-22 11:08:00,87.4,69.3,29.91,WSW,248,7.7,7.7,55,0.00,,---,0.00,VWS V14.00,2013-06-22 16:08:00,
2013-06-22 11:09:00,87.4,69.3,29.91,WSW,248,7.7,7.7,55,0.00,,---,0.00,VWS V14.00,2013-06-22 16:09:00,
2013-06-22 11:10:00,87.6,68.9,29.91,South,180,6.0,6.0,54,0.00,,---,0.00,VWS V14.00,2013-06-22 16:10:00,
2013-06-22 11:11:00,87.6,68.9,29.91,South,180,4.9,4.9,54,0.00,,---,0.00,VWS V14.00,2013-06-22 16:11:00,
2013-06-22 11:12:00,87.8,69.1,29.91,West,270,5.2,5.4,54,0.00,,---,0.00,VWS V14.00,2013-06-22 16:12:00,
2013-06-22 11:13:00,87.8,68.6,29.91,WSW,248,6.0,6.0,53,0.00,,---,0.00,VWS V14.00,2013-06-22 16:13:00,
2013-06-22 11:14:00,87.8,68.6,29.91,SW,225,6.9,6.9,53,0.00,,---,0.00,VWS V14.00,2013-06-22 16:14:00,
2013-06-22 11:15:00,87.8,69.1,29.91,South,180,6.3,6.3,54,0.00,,---,0.00,VWS V14.00,2013-06-22 16:15:00,
2013-06-22 11:16:00,87.8,69.1,29.91,SW,225,4.9,4.9,54,0.00,,---,0.00,VWS V14.00,2013-06-22 16:16:00,
2013-06-22 11:17:00,88.0,69.8,29.91,South,180,5.8,5.8,55,0.00,,---,0.00,VWS V14.00,2013-06-22 16:17:00,
2013-06-22 11:18:00,88.0,69.8,29.91,South,180,9.1,9.1,55,0.00,,---,0.00,VWS V14.00,2013-06-22 16:18:00,
2013-06-22 11:19:00,88.0,69.8,29.91,SSE,158,7.7,7.7,55,0.00,,---,0.00,VWS V14.00,2013-06-22 16:19:00,
2013-06-22 11:20:00,88.3,69.1,29.91,SE,135,11.6,11.6,53,0.00,,---,0.00,VWS V14.00,2013-06-22 16:20:00,
2013-06-22 11:21:00,88.5,69.2,29.91,WSW,248,8.3,8.5,53,0.00,,---,0.00,VWS V14.00,2013-06-22 16:21:00,
2013-06-22 11:22:00,88.5,69.2,29.91,SW,225,8.8,8.8,53,0.00,,---,0.00,VWS V14.00,2013-06-22 16:22:00,
2013-06-22 11:23:00,88.7,69.4,29.91,SW,225,4.6,6.3,53,0.00,,---,0.00,VWS V14.00,2013-06-22 16:23:00,
2013-06-22 11:24:00,88.7,69.4,29.91,SSW,202,8.6,8.6,53,0.00,,---,0.00,VWS V14.00,2013-06-22 16:24:00,
2013-06-22 11:25:00,88.9,69.6,29.91,SSW,202,7.7,7.7,53,0.00,,---,0.00,VWS V14.00,2013-06-22 16:25:00,
2013-06-22 11:26:00,89.1,69.7,29.91,SSW,202,5.2,6.0,53,0.00,,---,0.00,VWS V14.00,2013-06-22 16:26:00,
2013-06-22 11:27:00,89.2,69.9,29.91,SSW,202,6.0,6.0,53,0.00,,---,0.00,VWS V14.00,2013-06-22 16:27:00,
2013-06-22 11:28:00,89.2,69.3,29.91,SW,225,5.8,5.8,52,0.00,,---,0.00,VWS V14.00,2013-06-22 16:28:00,
2013-06-22 11:29:00,89.2,68.8,29.91,SSW,202,6.3,6.5,51,0.00,,---,0.00,VWS V14.00,2013-06-22 16:29:00,
2013-06-22 11:30:00,89.2,68.8,29.91,South,180,10.0,10.0,51,0.00,,---,0.00,VWS V14.00,2013-06-22 16:30:00,
2013-06-22 11:31:00,89.4,68.9,29.91,South,180,5.2,8.5,51,0.00,,---,0.00,VWS V14.00,2013-06-22 16:31:00,
2013-06-22 11:32:00,89.4,68.9,29.91,SSW,202,6.9,6.9,51,0.00,,---,0.00,VWS V14.00,2013-06-22 16:32:00,
2013-06-22 11:33:00,89.4,68.9,29.91,WSW,248,7.2,7.2,51,0.00,,---,0.00,VWS V14.00,2013-06-22 16:33:00,
2013-06-22 11:34:00,89.8,68.7,29.91,SW,225,8.8,8.8,50,0.00,,---,0.00,VWS V14.00,2013-06-22 16:34:00,
2013-06-22 11:35:00,89.8,68.7,29.91,South,180,5.2,6.3,50,0.00,,---,0.00,VWS V14.00,2013-06-22 16:35:00,
2013-06-22 11:36:00,90.0,68.8,29.91,South,180,5.5,5.5,50,0.00,,---,0.00,VWS V14.00,2013-06-22 16:36:00,
2013-06-22 11:37:00,90.0,69.4,29.91,SW,225,4.9,4.9,51,0.00,,---,0.00,VWS V14.00,2013-06-22 16:37:00,
2013-06-22 11:38:00,90.1,69.6,29.91,SSE,158,6.3,6.3,51,0.00,,---,0.00,VWS V14.00,2013-06-22 16:38:00,
2013-06-22 11:39:00,90.3,69.8,29.91,SSE,158,4.9,4.9,51,0.00,,---,0.00,VWS V14.00,2013-06-22 16:39:00,
2013-06-22 11:40:00,90.3,69.8,29.91,SE,135,8.0,8.0,51,0.00,,---,0.00,VWS V14.00,2013-06-22 16:40:00,
2013-06-22 11:41:00,90.3,69.8,29.91,SSE,158,8.3,8.3,51,0.00,,---,0.00,VWS V14.00,2013-06-22 16:41:00,
2013-06-22 11:42:00,90.9,69.7,29.91,SSE,158,5.8,8.5,50,0.00,,---,0.00,VWS V14.00,2013-06-22 16:42:00,
2013-06-22 11:43:00,91.0,69.2,29.91,SSE,158,14.4,14.4,49,0.00,,---,0.00,VWS V14.00,2013-06-22 16:43:00,
2013-06-22 11:44:00,91.0,69.2,29.91,SSW,202,8.8,10.7,49,0.00,,---,0.00,VWS V14.00,2013-06-22 16:44:00,
2013-06-22 11:45:00,91.0,69.2,29.91,SSW,202,6.3,6.3,49,0.00,,---,0.00,VWS V14.00,2013-06-22 16:45:00,
2013-06-22 11:46:00,91.0,69.2,29.91,SSE,158,11.1,11.1,49,0.00,,---,0.00,VWS V14.00,2013-06-22 16:46:00,
2013-06-22 11:47:00,91.2,68.8,29.91,South,180,7.2,8.1,48,0.00,,---,0.00,VWS V14.00,2013-06-22 16:47:00,
2013-06-22 11:48:00,91.2,68.8,29.91,SSW,202,4.9,5.4,48,0.00,,---,0.00,VWS V14.00,2013-06-22 16:48:00,
2013-06-22 11:49:00,91.2,68.2,29.91,WSW,248,8.6,8.6,47,0.00,,---,0.00,VWS V14.00,2013-06-22 16:49:00,
2013-06-22 11:50:00,91.2,68.2,29.91,WSW,248,8.3,8.3,47,0.00,,---,0.00,VWS V14.00,2013-06-22 16:50:00,
2013-06-22 11:51:00,91.2,68.2,29.91,SSE,158,8.6,8.6,47,0.00,,---,0.00,VWS V14.00,2013-06-22 16:51:00,
2013-06-22 11:52:00,91.2,68.2,29.91,SE,135,6.0,6.0,47,0.00,,---,0.00,VWS V14.00,2013-06-22 16:52:00,
2013-06-22 11:53:00,91.2,68.2,29.91,West,270,7.7,7.7,47,0.00,,---,0.00,VWS V14.00,2013-06-22 16:53:00,
2013-06-22 12:02:00,92.3,67.9,29.91,SW,225,6.9,6.9,45,0.00,,---,0.00,VWS V14.00,2013-06-22 17:02:00,
2013-06-22 12:09:00,92.7,68.9,29.91,SSE,158,6.0,6.0,46,0.00,,---,0.00,VWS V14.00,2013-06-22 17:09:00,
2013-06-22 12:14:00,93.2,67.4,29.91,SSW,202,4.1,4.3,43,0.00,,---,0.00,VWS V14.00,2013-06-22 17:14:00,
2013-06-22 12:20:00,93.4,66.9,29.91,South,180,8.8,8.8,42,0.00,,---,0.00,VWS V14.00,2013-06-22 17:20:00,
2013-06-22 12:26:00,93.0,66.6,29.91,SW,225,4.6,6.3,42,0.00,,---,0.00,VWS V14.00,2013-06-22 17:26:00,
2013-06-22 12:31:00,93.4,66.2,29.91,SW,225,8.0,8.0,41,0.00,,---,0.00,VWS V14.00,2013-06-22 17:31:00,
2013-06-22 12:37:00,93.2,66.0,29.91,SSW,202,11.1,12.1,41,0.00,,---,0.00,VWS V14.00,2013-06-22 17:37:00,
2013-06-22 12:42:00,93.4,66.2,29.91,SE,135,14.4,14.4,41,0.00,,---,0.00,VWS V14.00,2013-06-22 17:42:00,
2013-06-22 12:47:00,93.7,66.5,29.91,SW,225,8.8,8.8,41,0.00,,---,0.00,VWS V14.00,2013-06-22 17:47:00,
2013-06-22 12:52:00,93.9,66.7,29.91,SE,135,10.5,10.5,41,0.00,,---,0.00,VWS V14.00,2013-06-22 17:52:00,
2013-06-22 12:58:00,93.9,65.2,29.91,South,180,5.8,6.9,39,0.00,,---,0.00,VWS V14.00,2013-06-22 17:58:00,
2013-06-22 13:03:00,94.1,64.6,29.88,South,180,6.0,6.5,38,0.00,,---,0.00,VWS V14.00,2013-06-22 18:03:00,
2013-06-22 13:09:00,94.1,65.4,29.88,SSE,158,6.0,7.4,39,0.00,,---,0.00,VWS V14.00,2013-06-22 18:09:00,
2013-06-22 13:15:00,94.5,64.9,29.88,South,180,5.8,5.8,38,0.00,,---,0.00,VWS V14.00,2013-06-22 18:15:00,
2013-06-22 13:21:00,93.7,64.3,29.88,SSE,158,4.6,5.4,38,0.00,,---,0.00,VWS V14.00,2013-06-22 18:21:00,
2013-06-22 13:26:00,94.1,65.4,29.88,SSE,158,8.0,8.0,39,0.00,,---,0.00,VWS V14.00,2013-06-22 18:26:00,
2013-06-22 13:33:00,94.5,64.9,29.88,SW,225,8.3,8.3,38,0.00,,---,0.00,VWS V14.00,2013-06-22 18:33:00,
2013-06-22 13:38:00,95.0,64.7,29.88,SW,225,11.9,11.9,37,0.00,,---,0.00,VWS V14.00,2013-06-22 18:38:00,
2013-06-22 13:44:00,95.0,64.7,29.88,South,180,7.7,7.7,37,0.00,,---,0.00,VWS V14.00,2013-06-22 18:44:00,
2013-06-22 13:49:00,95.2,64.8,29.88,SE,135,9.7,9.7,37,0.00,,---,0.00,VWS V14.00,2013-06-22 18:49:00,
2013-06-22 13:54:00,95.7,64.5,29.88,SSW,202,11.9,11.9,36,0.00,,---,0.00,VWS V14.00,2013-06-22 18:54:00,
2013-06-22 13:59:00,95.9,64.7,29.88,SSE,158,8.6,8.6,36,0.00,,---,0.00,VWS V14.00,2013-06-22 18:59:00,
2013-06-22 14:05:00,95.2,63.2,29.88,NW,315,4.1,9.8,35,0.00,,---,0.00,VWS V14.00,2013-06-22 19:05:00,
2013-06-22 14:10:00,95.4,64.2,29.88,SW,225,5.5,11.0,36,0.00,,---,0.00,VWS V14.00,2013-06-22 19:10:00,
2013-06-22 14:15:00,95.5,64.4,29.88,SSW,202,7.2,7.4,36,0.00,,---,0.00,VWS V14.00,2013-06-22 19:15:00,
2013-06-22 14:20:00,95.2,60.7,29.85,SSE,158,9.1,9.8,32,0.00,,---,0.00,VWS V14.00,2013-06-22 19:20:00,
2013-06-22 14:26:00,95.4,61.7,29.85,SW,225,5.8,5.8,33,0.00,,---,0.00,VWS V14.00,2013-06-22 19:26:00,
2013-06-22 14:32:00,95.0,60.5,29.85,SSE,158,12.5,12.5,32,0.00,,---,0.00,VWS V14.00,2013-06-22 19:32:00,
2013-06-22 14:37:00,94.3,61.6,29.85,South,180,16.4,16.4,34,0.00,,---,0.00,VWS V14.00,2013-06-22 19:37:00,
2013-06-22 14:43:00,94.3,59.0,29.85,South,180,11.6,11.6,31,0.00,,---,0.00,VWS V14.00,2013-06-22 19:43:00,
2013-06-22 14:48:00,94.3,60.8,29.85,SE,135,8.0,11.9,33,0.00,,---,0.00,VWS V14.00,2013-06-22 19:48:00,
2013-06-22 14:53:00,94.6,61.1,29.85,South,180,8.3,8.5,33,0.00,,---,0.00,VWS V14.00,2013-06-22 19:53:00,
2013-06-22 14:58:00,94.6,61.1,29.85,SSE,158,13.9,13.9,33,0.00,,---,0.00,VWS V14.00,2013-06-22 19:58:00,
2013-06-22 15:04:00,94.6,62.8,29.85,South,180,11.1,11.1,35,0.00,,---,0.00,VWS V14.00,2013-06-22 20:04:00,
2013-06-22 15:09:00,94.3,60.8,29.85,SE,135,13.6,13.6,33,0.00,,---,0.00,VWS V14.00,2013-06-22 20:09:00,
2013-06-22 15:15:00,94.3,59.0,29.85,SE,135,13.0,13.0,31,0.00,,---,0.00,VWS V14.00,2013-06-22 20:15:00,
2013-06-22 15:20:00,93.9,58.7,29.82,SSE,158,11.9,11.9,31,0.00,,---,0.00,VWS V14.00,2013-06-22 20:20:00,
2013-06-22 15:26:00,93.6,59.3,29.82,SW,225,9.7,9.7,32,0.00,,---,0.00,VWS V14.00,2013-06-22 20:26:00,
2013-06-22 15:33:00,93.4,59.1,29.82,SSW,202,7.7,7.7,32,0.00,,---,0.00,VWS V14.00,2013-06-22 20:33:00,
2013-06-22 15:39:00,93.6,61.0,29.82,SW,225,11.1,11.1,34,0.00,,---,0.00,VWS V14.00,2013-06-22 20:39:00,
2013-06-22 15:44:00,93.2,58.1,29.82,South,180,6.0,14.5,31,0.00,,---,0.00,VWS V14.00,2013-06-22 20:44:00,
2013-06-22 15:50:00,93.0,57.9,29.82,SE,135,7.2,7.2,31,0.00,,---,0.00,VWS V14.00,2013-06-22 20:50:00,
2013-06-22 15:55:00,93.0,58.8,29.82,South,180,7.2,13.2,32,0.00,,---,0.00,VWS V14.00,2013-06-22 20:55:00,
2013-06-22 16:01:00,93.0,60.5,29.82,SW,225,7.7,7.7,34,0.00,,---,0.00,VWS V14.00,2013-06-22 21:01:00,
2013-06-22 16:06:00,93.2,59.8,29.79,SSW,202,8.8,8.8,33,0.00,,---,0.00,VWS V14.00,2013-06-22 21:06:00,
2013-06-22 16:12:00,93.2,59.0,29.79,SSW,202,8.0,12.8,32,0.00,,---,0.00,VWS V14.00,2013-06-22 21:12:00,
2013-06-22 16:17:00,93.0,59.7,29.79,SE,135,9.1,10.3,33,0.00,,---,0.00,VWS V14.00,2013-06-22 21:17:00,
2013-06-22 16:23:00,92.8,58.7,29.79,South,180,8.3,8.5,32,0.00,,---,0.00,VWS V14.00,2013-06-22 21:23:00,
2013-06-22 16:28:00,92.7,58.5,29.79,SSE,158,10.0,13.2,32,0.00,,---,0.00,VWS V14.00,2013-06-22 21:28:00,
2013-06-22 16:33:00,92.3,59.1,29.79,WSW,248,8.0,8.0,33,0.00,,---,0.00,VWS V14.00,2013-06-22 21:33:00,
2013-06-22 16:40:00,92.3,59.1,29.79,SSW,202,6.0,9.8,33,0.00,,---,0.00,VWS V14.00,2013-06-22 21:40:00,
2013-06-22 16:45:00,92.1,58.0,29.79,SSE,158,8.0,10.3,32,0.00,,---,0.00,VWS V14.00,2013-06-22 21:45:00,
2013-06-22 16:50:00,92.1,58.0,29.79,South,180,9.7,13.0,32,0.00,,---,0.00,VWS V14.00,2013-06-22 21:50:00,
2013-06-22 16:56:00,92.3,58.2,29.79,South,180,6.0,6.5,32,0.00,,---,0.00,VWS V14.00,2013-06-22 21:56:00,
2013-06-22 17:01:00,92.5,57.5,29.79,South,180,10.0,10.0,31,0.00,,---,0.00,VWS V14.00,2013-06-22 22:01:00,
2013-06-22 17:06:00,91.8,56.9,29.79,East,90,10.8,10.8,31,0.00,,---,0.00,VWS V14.00,2013-06-22 22:06:00,
2013-06-22 17:11:00,91.8,56.9,29.79,SE,135,6.0,7.2,31,0.00,,---,0.00,VWS V14.00,2013-06-22 22:11:00,
2013-06-22 17:17:00,91.9,57.0,29.79,SSE,158,7.7,9.0,31,0.00,,---,0.00,VWS V14.00,2013-06-22 22:17:00,
2013-06-22 17:22:00,91.9,57.9,29.79,SSW,202,4.9,7.2,32,0.00,,---,0.00,VWS V14.00,2013-06-22 22:22:00,
2013-06-22 17:28:00,91.9,57.9,29.79,SE,135,8.8,8.8,32,0.00,,---,0.00,VWS V14.00,2013-06-22 22:28:00,
2013-06-22 17:34:00,91.9,57.0,29.79,ESE,112,6.3,8.7,31,0.00,,---,0.00,VWS V14.00,2013-06-22 22:34:00,
2013-06-22 17:39:00,91.8,56.9,29.79,SSE,158,6.3,6.3,31,0.00,,---,0.00,VWS V14.00,2013-06-22 22:39:00,
2013-06-22 17:45:00,91.8,57.7,29.79,South,180,6.0,6.0,32,0.00,,---,0.00,VWS V14.00,2013-06-22 22:45:00,
2013-06-22 17:50:00,91.6,56.7,29.79,SSE,158,8.6,8.6,31,0.00,,---,0.00,VWS V14.00,2013-06-22 22:50:00,
2013-06-22 17:56:00,91.4,56.5,29.79,South,180,7.2,8.1,31,0.00,,---,0.00,VWS V14.00,2013-06-22 22:56:00,
2013-06-22 18:02:00,91.4,56.5,29.79,SE,135,8.0,8.0,31,0.00,,---,0.00,VWS V14.00,2013-06-22 23:02:00,
2013-06-22 18:07:00,91.2,56.4,29.79,South,180,10.8,10.8,31,0.00,,---,0.00,VWS V14.00,2013-06-22 23:07:00,
2013-06-22 18:13:00,90.7,55.9,29.79,South,180,5.2,5.8,31,0.00,,---,0.00,VWS V14.00,2013-06-22 23:13:00,
2013-06-22 18:18:00,90.7,56.8,29.79,SSE,158,5.8,6.3,32,0.00,,---,0.00,VWS V14.00,2013-06-22 23:18:00,
2013-06-22 18:24:00,91.0,56.2,29.79,SSW,202,9.1,9.1,31,0.00,,---,0.00,VWS V14.00,2013-06-22 23:24:00,
2013-06-22 18:29:00,91.0,56.2,29.79,SSE,158,6.3,6.3,31,0.00,,---,0.00,VWS V14.00,2013-06-22 23:29:00,
2013-06-22 18:34:00,91.0,56.2,29.79,SSE,158,7.2,7.2,31,0.00,,---,0.00,VWS V14.00,2013-06-22 23:34:00,
2013-06-22 18:39:00,90.7,55.9,29.79,SSE,158,6.3,6.3,31,0.00,,---,0.00,VWS V14.00,2013-06-22 23:39:00,
2013-06-22 18:45:00,90.9,57.0,29.79,SE,135,8.6,8.6,32,0.00,,---,0.00,VWS V14.00,2013-06-22 23:45:00,
2013-06-22 18:51:00,90.7,55.9,29.79,SE,135,10.2,10.2,31,0.00,,---,0.00,VWS V14.00,2013-06-22 23:51:00,
2013-06-22 18:57:00,90.1,55.5,29.79,SSE,158,7.7,7.7,31,0.00,,---,0.00,VWS V14.00,2013-06-22 23:57:00,
2013-06-22 19:02:00,90.0,56.2,29.79,SE,135,10.0,10.0,32,0.00,,---,0.00,VWS V14.00,2013-06-23 00:02:00,
2013-06-22 19:07:00,89.6,56.7,29.79,SSE,158,6.0,6.0,33,0.00,,---,0.00,VWS V14.00,2013-06-23 00:07:00,
2013-06-22 19:13:00,88.7,56.8,29.79,ESE,112,5.5,5.5,34,0.00,,---,0.00,VWS V14.00,2013-06-23 00:13:00,
2013-06-22 19:18:00,88.2,57.1,29.79,SE,135,4.9,4.9,35,0.00,,---,0.00,VWS V14.00,2013-06-23 00:18:00,
2013-06-22 19:24:00,87.3,57.1,29.79,SE,135,4.4,4.9,36,0.00,,---,0.00,VWS V14.00,2013-06-23 00:24:00,
2013-06-22 19:30:00,87.1,57.7,29.79,SE,135,3.8,3.8,37,0.00,,---,0.00,VWS V14.00,2013-06-23 00:30:00,
2013-06-22 19:36:00,86.7,58.1,29.79,SSE,158,3.5,3.5,38,0.00,,---,0.00,VWS V14.00,2013-06-23 00:36:00,
2013-06-22 19:42:00,86.0,58.2,29.79,ESE,112,6.9,6.9,39,0.00,,---,0.00,VWS V14.00,2013-06-23 00:42:00,
2013-06-22 19:47:00,85.6,58.6,29.79,South,180,3.5,3.5,40,0.00,,---,0.00,VWS V14.00,2013-06-23 00:47:00,
2013-06-22 19:53:00,85.3,58.2,29.82,East,90,5.2,5.2,40,0.00,,---,0.00,VWS V14.00,2013-06-23 00:53:00,
2013-06-22 19:58:00,84.9,58.6,29.82,SSE,158,3.5,3.5,41,0.00,,---,0.00,VWS V14.00,2013-06-23 00:58:00,
2013-06-22 20:03:00,84.6,58.3,29.82,South,180,3.8,3.8,41,0.00,,---,0.00,VWS V14.00,2013-06-23 01:03:00,
2013-06-22 20:08:00,84.2,58.6,29.82,SSW,202,3.0,3.0,42,0.00,,---,0.00,VWS V14.00,2013-06-23 01:08:00,
2013-06-22 20:14:00,83.8,58.3,29.82,SSW,202,2.1,2.5,42,0.00,,---,0.00,VWS V14.00,2013-06-23 01:14:00,
2013-06-22 20:19:00,83.7,58.8,29.82,SSW,202,1.0,0.0,43,0.00,,---,0.00,VWS V14.00,2013-06-23 01:19:00,
2013-06-22 20:24:00,83.1,58.3,29.82,SSW,202,2.1,2.1,43,0.00,,---,0.00,VWS V14.00,2013-06-23 01:24:00,
2013-06-22 20:30:00,82.9,58.8,29.82,SSW,202,1.0,0.0,44,0.00,,---,0.00,VWS V14.00,2013-06-23 01:30:00,
2013-06-22 20:36:00,82.6,58.5,29.82,SW,225,1.0,0.0,44,0.00,,---,0.00,VWS V14.00,2013-06-23 01:36:00,
2013-06-22 20:42:00,82.2,59.4,29.82,SSW,202,2.1,2.1,46,0.00,,---,0.00,VWS V14.00,2013-06-23 01:42:00,
2013-06-22 20:48:00,81.7,58.9,29.82,SW,225,1.0,0.0,46,0.00,,---,0.00,VWS V14.00,2013-06-23 01:48:00,
2013-06-22 20:54:00,81.5,59.3,29.82,SW,225,2.4,2.4,47,0.00,,---,0.00,VWS V14.00,2013-06-23 01:54:00,
2013-06-22 20:59:00,81.1,59.6,29.82,SSW,202,1.0,2.0,48,0.00,,---,0.00,VWS V14.00,2013-06-23 01:59:00,
2013-06-22 21:05:00,80.8,59.3,29.82,SSW,202,1.0,0.0,48,0.00,,---,0.00,VWS V14.00,2013-06-23 02:05:00,
2013-06-22 21:11:00,80.6,59.7,29.82,West,270,1.0,0.0,49,0.00,,---,0.00,VWS V14.00,2013-06-23 02:11:00,
2013-06-22 21:16:00,80.6,59.7,29.82,West,270,1.0,0.0,49,0.00,,---,0.00,VWS V14.00,2013-06-23 02:16:00,
2013-06-22 21:21:00,80.4,59.5,29.82,West,270,1.0,0.0,49,0.00,,---,0.00,VWS V14.00,2013-06-23 02:21:00,
2013-06-22 21:27:00,80.2,59.9,29.82,West,270,1.0,0.0,50,0.00,,---,0.00,VWS V14.00,2013-06-23 02:27:00,
2013-06-22 21:32:00,80.1,60.3,29.82,SSE,158,2.7,2.7,51,0.00,,---,0.00,VWS V14.00,2013-06-23 02:32:00,
2013-06-22 21:37:00,79.9,60.2,29.82,South,180,1.0,1.3,51,0.00,,---,0.00,VWS V14.00,2013-06-23 02:37:00,
2013-06-22 21:43:00,79.7,61.1,29.82,SSE,158,3.0,3.0,53,0.00,,---,0.00,VWS V14.00,2013-06-23 02:43:00,
2013-06-22 21:48:00,79.5,60.4,29.82,SE,135,4.1,4.1,52,0.00,,---,0.00,VWS V14.00,2013-06-23 02:48:00,
2013-06-22 21:53:00,79.3,60.2,29.82,South,180,2.7,2.7,52,0.00,,---,0.00,VWS V14.00,2013-06-23 02:53:00,
2013-06-22 21:58:00,79.3,60.7,29.82,SE,135,3.0,3.0,53,0.00,,---,0.00,VWS V14.00,2013-06-23 02:58:00,
2013-06-22 22:04:00,79.2,60.6,29.82,SE,135,1.0,1.3,53,0.00,,---,0.00,VWS V14.00,2013-06-23 03:04:00,
2013-06-22 22:09:00,79.2,61.1,29.82,SE,135,1.0,0.0,54,0.00,,---,0.00,VWS V14.00,2013-06-23 03:09:00,
2013-06-22 22:14:00,79.2,61.1,29.82,East,90,2.1,2.1,54,0.00,,---,0.00,VWS V14.00,2013-06-23 03:14:00,
2013-06-22 22:20:00,79.2,61.1,29.85,East,90,1.0,0.0,54,0.00,,---,0.00,VWS V14.00,2013-06-23 03:20:00,
2013-06-22 22:25:00,79.2,61.1,29.85,NE,45,2.4,2.4,54,0.00,,---,0.00,VWS V14.00,2013-06-23 03:25:00,
2013-06-22 22:30:00,79.2,62.1,29.85,NW,315,5.2,5.2,56,0.00,,---,0.00,VWS V14.00,2013-06-23 03:30:00,
2013-06-22 22:35:00,79.0,62.5,29.85,NW,315,4.1,4.1,57,0.00,,---,0.00,VWS V14.00,2013-06-23 03:35:00,
2013-06-22 22:40:00,79.0,62.5,29.85,SE,135,4.1,4.1,57,0.00,,---,0.00,VWS V14.00,2013-06-23 03:40:00,
2013-06-22 22:46:00,78.8,61.8,29.85,NNW,338,6.0,6.0,56,0.00,,---,0.00,VWS V14.00,2013-06-23 03:46:00,
2013-06-22 22:51:00,77.7,61.3,29.85,ESE,112,3.5,3.5,57,0.00,,---,0.00,VWS V14.00,2013-06-23 03:51:00,
2013-06-22 22:57:00,77.2,61.3,29.85,East,90,4.1,4.1,58,0.00,,---,0.00,VWS V14.00,2013-06-23 03:57:00,
2013-06-22 23:01:00,76.8,61.4,29.85,NW,315,4.9,4.9,59,0.00,,---,0.00,VWS V14.00,2013-06-23 04:01:00,
2013-06-22 23:02:00,76.6,61.2,29.85,NNW,338,4.6,4.6,59,0.00,,---,0.00,VWS V14.00,2013-06-23 04:02:00,
2013-06-22 23:04:00,76.5,61.6,29.85,NNW,338,3.5,3.5,60,0.00,,---,0.00,VWS V14.00,2013-06-23 04:04:00,
2013-06-22 23:07:00,76.3,61.9,29.85,East,90,3.5,3.6,61,0.00,,---,0.00,VWS V14.00,2013-06-23 04:07:00,
2013-06-22 23:11:00,76.1,61.7,29.85,ENE,68,2.7,2.9,61,0.00,,---,0.00,VWS V14.00,2013-06-23 04:11:00,
2013-06-22 23:17:00,75.9,62.4,29.85,NW,315,2.4,2.4,63,0.00,,---,0.00,VWS V14.00,2013-06-23 04:17:00,
2013-06-22 23:22:00,75.7,62.3,29.85,WNW,292,3.0,4.0,63,0.00,,---,0.00,VWS V14.00,2013-06-23 04:22:00,
2013-06-22 23:27:00,75.6,62.1,29.85,West,270,5.2,5.2,63,0.00,,---,0.00,VWS V14.00,2013-06-23 04:27:00,
2013-06-22 23:33:00,75.6,62.5,29.85,NNW,338,4.6,4.6,64,0.00,,---,0.00,VWS V14.00,2013-06-23 04:33:00,
2013-06-22 23:38:00,75.4,62.4,29.85,ESE,112,4.4,4.4,64,0.00,,---,0.00,VWS V14.00,2013-06-23 04:38:00,
2013-06-22 23:44:00,75.2,62.6,29.85,West,270,2.4,8.7,65,0.00,,---,0.00,VWS V14.00,2013-06-23 04:44:00,
2013-06-22 23:49:00,75.2,63.1,29.85,East,90,4.4,4.4,66,0.00,,---,0.00,VWS V14.00,2013-06-23 04:49:00,
2013-06-22 23:54:00,75.0,62.9,29.85,West,270,4.6,4.6,66,0.00,,---,0.00,VWS V14.00,2013-06-23 04:54:00,